Observation data for Stinnett on 01/17/2019      Previous  Date  Next       Current Mesonet Observations  Soil Data  Daily Summary Page  Observations in Plain Language
KST3 170600Z 35009KT 02/02 A3008 RMK A01 T00190019  RH  100%=      5-min Rain = 0
KST3 170601Z 34008KT 02/02 A3009 RMK A01 T00190019  RH  100%=      5-min Rain = 0
KST3 170602Z 34008KT 02/02 A3008 RMK A01 T00190019  RH  100%=      5-min Rain = 0
KST3 170603Z 34009KT 02/02 A3008 RMK A01 T00190019  RH  100%=      5-min Rain = 0
KST3 170604Z 34009KT 02/02 A3009 RMK A01 T00200020  RH  100%=      5-min Rain = 0
KST3 170605Z 34006KT 02/02 A3009 RMK A01 T00200020  RH  100%=      5-min Rain = 0
KST3 170606Z 34007KT 02/02 A3009 RMK A01 T00200020  RH  100%=      5-min Rain = 0
KST3 170607Z 34007KT 02/02 A3009 RMK A01 T00200020  RH  100%=      5-min Rain = 0
KST3 170608Z 34007KT 02/02 A3009 RMK A01 T00200020  RH  100%=      5-min Rain = 0
KST3 170609Z 33008KT 02/02 A3009 RMK A01 T00200020  RH  100%=      5-min Rain = 0
KST3 170610Z 33009KT 02/02 A3009 RMK A01 T00200020  RH  100%=      5-min Rain = 0
KST3 170611Z 33009KT 02/02 A3009 RMK A01 T00200020  RH  100%=      5-min Rain = 0
KST3 170612Z 33009KT 02/02 A3009 RMK A01 T00190019  RH  100%=      5-min Rain = 0
KST3 170613Z 33009KT 02/02 A3009 RMK A01 T00190019  RH  100%=      5-min Rain = 0
KST3 170614Z 34009KT 02/02 A3009 RMK A01 T00190019  RH  100%=      5-min Rain = 0
KST3 170615Z 35010KT 02/02 A3009 RMK A01 T00190019  RH  100%=      5-min Rain = 0
KST3 170616Z 35009KT 02/02 A3009 RMK A01 T00190019  RH  100%=      5-min Rain = 0
KST3 170617Z 35008KT 02/02 A3009 RMK A01 T00190019  RH  100%=      5-min Rain = 0
KST3 170618Z 35008KT 02/02 A3009 RMK A01 T00200020  RH  100%=      5-min Rain = 0
KST3 170619Z 35009KT 02/02 A3009 RMK A01 T00200020  RH  100%=      5-min Rain = 0
KST3 170620Z 36008KT 02/02 A3009 RMK A01 T00200019  RH  100%=      5-min Rain = 0
KST3 170621Z 34007KT 02/02 A3009 RMK A01 T00200019  RH  100%=      5-min Rain = 0
KST3 170622Z 34008KT 02/02 A3008 RMK A01 T00200019  RH  100%=      5-min Rain = 0
KST3 170623Z 34008KT 02/02 A3009 RMK A01 T00190019  RH  100%=      5-min Rain = 0
KST3 170624Z 34008KT 02/02 A3009 RMK A01 T00190019  RH  100%=      5-min Rain = 0
KST3 170625Z 34007KT 02/02 A3008 RMK A01 T00180018  RH  100%=      5-min Rain = 0
KST3 170626Z 33008KT 02/02 A3008 RMK A01 T00180018  RH  100%=      5-min Rain = 0
KST3 170627Z 33009KT 02/02 A3009 RMK A01 T00180018  RH  100%=      5-min Rain = 0
KST3 170628Z 33012KT 02/02 A3008 RMK A01 T00190019  RH  100%=      5-min Rain = 0
KST3 170629Z 34011KT 02/02 A3008 RMK A01 T00190018  RH  100%=      5-min Rain = 0
KST3 170630Z 33011KT 02/02 A3008 RMK A01 T00180018  RH  100%=      5-min Rain = 0
KST3 170631Z 33008KT 02/02 A3008 RMK A01 T00180018  RH  100%=      5-min Rain = 0
KST3 170632Z 33010KT 02/02 A3008 RMK A01 T00180017  RH  100%=      5-min Rain = 0
KST3 170633Z 33010KT 02/02 A3008 RMK A01 T00180018  RH  100%=      5-min Rain = 0
KST3 170634Z 33008KT 02/02 A3008 RMK A01 T00180018  RH  100%=      5-min Rain = 0
KST3 170635Z 34008KT 02/02 A3008 RMK A01 T00180018  RH  100%=      5-min Rain = 0
KST3 170636Z 33007KT 02/02 A3008 RMK A01 T00180018  RH  100%=      5-min Rain = 0
KST3 170637Z 33009KT 02/02 A3008 RMK A01 T00180018  RH  100%=      5-min Rain = 0
KST3 170638Z 33011KT 02/02 A3008 RMK A01 T00180018  RH  100%=      5-min Rain = 0
KST3 170639Z 33012KT 02/02 A3008 RMK A01 T00180018  RH  100%=      5-min Rain = 0
KST3 170640Z 34012KT 02/02 A3008 RMK A01 T00180018  RH  100%=      5-min Rain = 0
KST3 170641Z 34013KT 02/02 A3008 RMK A01 T00180017  RH  100%=      5-min Rain = 0
KST3 170642Z 34012KT 02/02 A3008 RMK A01 T00170017  RH  100%=      5-min Rain = 0
KST3 170643Z 34012KT 02/02 A3008 RMK A01 T00170017  RH  100%=      5-min Rain = 0
KST3 170644Z 33009KT 02/02 A3008 RMK A01 T00170017  RH  100%=      5-min Rain = 0
KST3 170645Z 32010KT 02/02 A3008 RMK A01 T00180018  RH  100%=      5-min Rain = 0
KST3 170646Z 32011KT 02/02 A3008 RMK A01 T00180018  RH  100%=      5-min Rain = 0
KST3 170647Z 33012KT 02/02 A3008 RMK A01 T00180018  RH  100%=      5-min Rain = 0
KST3 170648Z 33011KT 02/02 A3008 RMK A01 T00170017  RH  100%=      5-min Rain = 0
KST3 170649Z 33011KT 02/02 A3008 RMK A01 T00170017  RH  100%=      5-min Rain = 0
KST3 170650Z 33012KT 02/02 A3008 RMK A01 T00170017  RH  100%=      5-min Rain = 0
KST3 170651Z 33011KT 02/02 A3008 RMK A01 T00170017  RH  100%=      5-min Rain = 0
KST3 170652Z 32009KT 02/02 A3008 RMK A01 T00170017  RH  100%=      5-min Rain = 0
KST3 170653Z 33009KT 02/02 A3008 RMK A01 T00170017  RH  100%=      5-min Rain = 0
KST3 170654Z 33010KT 02/02 A3008 RMK A01 T00170017  RH  100%=      5-min Rain = 0
KST3 170655Z 33009KT 02/02 A3007 RMK A01 T00170017  RH  100%=      5-min Rain = 0
KST3 170656Z 33009KT 02/02 A3007 RMK A01 T00170017  RH  100%=      5-min Rain = 0
KST3 170657Z 33010KT 02/02 A3007 RMK A01 T00170017  RH  100%=      5-min Rain = 0
KST3 170658Z 34009KT 02/02 A3007 RMK A01 T00170017  RH  100%=      5-min Rain = 0
KST3 170659Z 33010KT 02/02 A3008 RMK A01 T00170016  RH  100%=      5-min Rain = 0
KST3 170700Z 33010KT 02/02 A3008 RMK A01 T00160016  RH  100%=      5-min Rain = 0
KST3 170701Z 33011KT 02/02 A3008 RMK A01 T00160016  RH  100%=      5-min Rain = 0
KST3 170702Z 33009KT 02/02 A3008 RMK A01 T00150015  RH  100%=      5-min Rain = 0
KST3 170703Z 33008KT 01/01 A3008 RMK A01 T00140014  RH  100%=      5-min Rain = 0
KST3 170704Z 32008KT 01/01 A3008 RMK A01 T00140014  RH  100%=      5-min Rain = 0
KST3 170705Z 32008KT 01/01 A3008 RMK A01 T00140014  RH  100%=      5-min Rain = 0
KST3 170706Z 32009KT 01/01 A3008 RMK A01 T00140014  RH  100%=      5-min Rain = 0
KST3 170707Z 32008KT 01/01 A3008 RMK A01 T00140014  RH  100%=      5-min Rain = 0
KST3 170708Z 32008KT 01/01 A3008 RMK A01 T00130013  RH  100%=      5-min Rain = 0
KST3 170709Z 33009KT 01/01 A3008 RMK A01 T00130013  RH  100%=      5-min Rain = 0
KST3 170710Z 33009KT 01/01 A3008 RMK A01 T00140014  RH  100%=      5-min Rain = 0
KST3 170711Z 33009KT 01/01 A3008 RMK A01 T00140014  RH  100%=      5-min Rain = 0
KST3 170712Z 33009KT 02/02 A3008 RMK A01 T00150015  RH  100%=      5-min Rain = 0
KST3 170713Z 33011KT 02/02 A3009 RMK A01 T00150015  RH  100%=      5-min Rain = 0
KST3 170714Z 33011KT 02/02 A3009 RMK A01 T00150015  RH  100%=      5-min Rain = 0
KST3 170715Z 33010KT 02/02 A3009 RMK A01 T00150015  RH  100%=      5-min Rain = 0
KST3 170716Z 34013KT 02/02 A3009 RMK A01 T00150015  RH  100%=      5-min Rain = 0
KST3 170717Z 34012KT 02/02 A3009 RMK A01 T00150015  RH  100%=      5-min Rain = 0
KST3 170718Z 33010KT 02/02 A3009 RMK A01 T00150015  RH  100%=      5-min Rain = 0
KST3 170719Z 33010KT 02/02 A3009 RMK A01 T00150015  RH  100%=      5-min Rain = 0
KST3 170720Z 33009KT 02/02 A3009 RMK A01 T00160016  RH  100%=      5-min Rain = 0
KST3 170721Z 33010KT 02/02 A3009 RMK A01 T00160016  RH  100%=      5-min Rain = 0
KST3 170722Z 33008KT 02/02 A3009 RMK A01 T00160016  RH  100%=      5-min Rain = 0
KST3 170723Z 33010KT 02/02 A3009 RMK A01 T00160016  RH  100%=      5-min Rain = 0
KST3 170724Z 33009KT 02/02 A3009 RMK A01 T00160016  RH  100%=      5-min Rain = 0
KST3 170725Z 33009KT 02/02 A3009 RMK A01 T00160016  RH  100%=      5-min Rain = 0
KST3 170726Z 34007KT 02/02 A3009 RMK A01 T00170017  RH  100%=      5-min Rain = 0
KST3 170727Z 33009KT 02/02 A3009 RMK A01 T00170017  RH  100%=      5-min Rain = 0
KST3 170728Z 33011KT 02/02 A3009 RMK A01 T00170017  RH  100%=      5-min Rain = 0
KST3 170729Z 32012KT 02/02 A3009 RMK A01 T00160016  RH  100%=      5-min Rain = 0
KST3 170730Z 33014KT 02/02 A3008 RMK A01 T00150015  RH  100%=      5-min Rain = 0
KST3 170731Z 33013KT 01/01 A3008 RMK A01 T00140014  RH  100%=      5-min Rain = 0
KST3 170732Z 32013KT 01/01 A3008 RMK A01 T00130013  RH  100%=      5-min Rain = 0
KST3 170733Z 33013KT 01/01 A3008 RMK A01 T00130013  RH  100%=      5-min Rain = 0
KST3 170734Z 33012KT 01/01 A3008 RMK A01 T00130013  RH  100%=      5-min Rain = 0
KST3 170735Z 34012KT 01/01 A3008 RMK A01 T00130013  RH  100%=      5-min Rain = 0
KST3 170736Z 33012KT 01/01 A3008 RMK A01 T00140014  RH  100%=      5-min Rain = 0
KST3 170737Z 33010KT 01/01 A3008 RMK A01 T00140014  RH  100%=      5-min Rain = 0
KST3 170738Z 33011KT 01/01 A3008 RMK A01 T00140014  RH  100%=      5-min Rain = 0
KST3 170739Z 33011KT 02/01 A3009 RMK A01 T00150014  RH  100%=      5-min Rain = 0
KST3 170740Z 32012KT 02/02 A3009 RMK A01 T00150015  RH  100%=      5-min Rain = 0
KST3 170741Z 33012KT 02/02 A3009 RMK A01 T00150015  RH  100%=      5-min Rain = 0
KST3 170742Z 33012KT 02/01 A3009 RMK A01 T00150014  RH  100%=      5-min Rain = 0
KST3 170743Z 33011KT 01/01 A3009 RMK A01 T00140014  RH  100%=      5-min Rain = 0
KST3 170744Z 33011KT 01/01 A3009 RMK A01 T00140014  RH  100%=      5-min Rain = 0
KST3 170745Z 31010G15KT 01/01 A3009 RMK A01 T00140014  RH  100%=      5-min Rain = 0
KST3 170746Z 31012KT 01/01 A3009 RMK A01 T00140014  RH  100%=      5-min Rain = 0
KST3 170747Z 31012KT 01/01 A3009 RMK A01 T00140014  RH  100%=      5-min Rain = 0
KST3 170748Z 31010KT 01/01 A3009 RMK A01 T00140014  RH  100%=      5-min Rain = 0
KST3 170749Z 32010G15KT 01/01 A3009 RMK A01 T00140014  RH  100%=      5-min Rain = 0
KST3 170750Z 32014KT 01/01 A3009 RMK A01 T00140014  RH  100%=      5-min Rain = 0
KST3 170751Z 32014KT 01/01 A3009 RMK A01 T00140014  RH  100%=      5-min Rain = 0
KST3 170752Z 32015KT 01/01 A3009 RMK A01 T00140014  RH  100%=      5-min Rain = 0
KST3 170753Z 32013KT 01/01 A3009 RMK A01 T00140014  RH  100%=      5-min Rain = 0
KST3 170754Z 32014KT 01/01 A3009 RMK A01 T00140014  RH  100%=      5-min Rain = 0
KST3 170755Z 32014KT 01/01 A3009 RMK A01 T00140014  RH  100%=      5-min Rain = 0
KST3 170756Z 32015KT 01/01 A3009 RMK A01 T00140014  RH  100%=      5-min Rain = 0
KST3 170757Z 32015KT 01/01 A3009 RMK A01 T00140014  RH  100%=      5-min Rain = 0
KST3 170758Z 32015KT 01/01 A3009 RMK A01 T00140014  RH  100%=      5-min Rain = 0
KST3 170759Z 32014KT 01/01 A3009 RMK A01 T00140014  RH  100%=      5-min Rain = 0
KST3 170800Z 31012KT 01/01 A3009 RMK A01 T00140014  RH  100%=      5-min Rain = 0
KST3 170801Z 31013KT 01/01 A3009 RMK A01 T00140014  RH  100%=      5-min Rain = 0
KST3 170802Z 31013KT 01/01 A3009 RMK A01 T00140014  RH  100%=      5-min Rain = 0
KST3 170803Z 31013KT 01/01 A3009 RMK A01 T00140014  RH  100%=      5-min Rain = 0
KST3 170804Z 32012KT 01/01 A3009 RMK A01 T00140014  RH  100%=      5-min Rain = 0
KST3 170805Z 32013KT 01/01 A3009 RMK A01 T00140014  RH  100%=      5-min Rain = 0
KST3 170806Z 33012KT 01/01 A3009 RMK A01 T00140014  RH  100%=      5-min Rain = 0
KST3 170807Z 32010KT 01/01 A3009 RMK A01 T00140014  RH  100%=      5-min Rain = 0
KST3 170808Z 32009KT 02/01 A3009 RMK A01 T00150014  RH  100%=      5-min Rain = 0
KST3 170809Z 32011KT 02/02 A3009 RMK A01 T00150015  RH  100%=      5-min Rain = 0
KST3 170810Z 31009KT 02/02 A3009 RMK A01 T00150015  RH  100%=      5-min Rain = 0
KST3 170811Z 31012KT 02/02 A3009 RMK A01 T00150015  RH  100%=      5-min Rain = 0
KST3 170812Z 32012KT 01/01 A3009 RMK A01 T00140014  RH  100%=      5-min Rain = 0
KST3 170813Z 32010KT 01/01 A3009 RMK A01 T00140014  RH  100%=      5-min Rain = 0
KST3 170814Z 32009KT 01/01 A3009 RMK A01 T00140014  RH  100%=      5-min Rain = 0
KST3 170815Z 31010KT 01/01 A3009 RMK A01 T00140014  RH  100%=      5-min Rain = 0
KST3 170816Z 31009KT 01/01 A3009 RMK A01 T00140014  RH  100%=      5-min Rain = 0
KST3 170817Z 32011KT 01/01 A3009 RMK A01 T00140014  RH  100%=      5-min Rain = 0
KST3 170818Z 32010KT 01/01 A3009 RMK A01 T00140014  RH  100%=      5-min Rain = 0
KST3 170819Z 33009KT 01/01 A3009 RMK A01 T00140014  RH  100%=      5-min Rain = 0
KST3 170820Z 32009KT 01/01 A3009 RMK A01 T00140014  RH  100%=      5-min Rain = 0
KST3 170821Z 32009KT 01/01 A3009 RMK A01 T00140014  RH  100%=      5-min Rain = 0
KST3 170822Z 32011KT 01/01 A3009 RMK A01 T00140014  RH  100%=      5-min Rain = 0
KST3 170823Z 32011KT 01/01 A3009 RMK A01 T00130013  RH  100%=      5-min Rain = 0
KST3 170824Z 32010KT 01/01 A3009 RMK A01 T00120012  RH  100%=      5-min Rain = 0
KST3 170825Z 31010KT 01/01 A3009 RMK A01 T00120012  RH  100%=      5-min Rain = 0
KST3 170826Z 32012KT 01/01 A3009 RMK A01 T00120012  RH  100%=      5-min Rain = 0
KST3 170827Z 32011KT 01/01 A3009 RMK A01 T00110011  RH  100%=      5-min Rain = 0
KST3 170828Z 32013KT 01/01 A3009 RMK A01 T00110011  RH  100%=      5-min Rain = 0
KST3 170829Z 32011KT 01/01 A3009 RMK A01 T00110011  RH  100%=      5-min Rain = 0
KST3 170830Z 32008KT 01/01 A3009 RMK A01 T00120011  RH  100%=      5-min Rain = 0
KST3 170831Z 31008KT 01/01 A3009 RMK A01 T00120012  RH  100%=      5-min Rain = 0
KST3 170832Z 32010KT 01/01 A3009 RMK A01 T00120012  RH  100%=      5-min Rain = 0
KST3 170833Z 31011KT 01/01 A3009 RMK A01 T00120012  RH  100%=      5-min Rain = 0
KST3 170834Z 31010KT 01/01 A3009 RMK A01 T00120012  RH  100%=      5-min Rain = 0
KST3 170835Z 31009KT 01/01 A3009 RMK A01 T00120012  RH  100%=      5-min Rain = 0
KST3 170836Z 31009KT 01/01 A3009 RMK A01 T00120012  RH  100%=      5-min Rain = 0
KST3 170837Z 31007KT 01/01 A3009 RMK A01 T00110011  RH  100%=      5-min Rain = 0
KST3 170838Z 30008KT 01/01 A3009 RMK A01 T00110011  RH  100%=      5-min Rain = 0
KST3 170839Z 31008KT 01/01 A3009 RMK A01 T00110011  RH  100%=      5-min Rain = 0
KST3 170840Z 31007KT 01/01 A3009 RMK A01 T00110010  RH  100%=      5-min Rain = 0
KST3 170841Z 30006KT 01/01 A3009 RMK A01 T00100010  RH  100%=      5-min Rain = 0
KST3 170842Z 31009KT 01/01 A301 RMK A01 T00110010  RH  100%=      5-min Rain = 0
KST3 170843Z 31008KT 01/01 A301 RMK A01 T00100010  RH  100%=      5-min Rain = 0
KST3 170844Z 30009KT 01/01 A301 RMK A01 T00100010  RH  100%=      5-min Rain = 0
KST3 170845Z 31010KT 01/01 A301 RMK A01 T00100009  RH  100%=      5-min Rain = 0
KST3 170846Z 32010KT 01/01 A301 RMK A01 T00090009  RH  100%=      5-min Rain = 0
KST3 170847Z 32008KT 01/01 A301 RMK A01 T00090009  RH  100%=      5-min Rain = 0
KST3 170848Z 32008KT 01/01 A301 RMK A01 T00090009  RH  100%=      5-min Rain = 0
KST3 170849Z 32007KT 01/01 A301 RMK A01 T00090009  RH  100%=      5-min Rain = 0
KST3 170850Z 31006KT 01/01 A301 RMK A01 T00090009  RH  100%=      5-min Rain = 0
KST3 170851Z 31004KT 01/01 A301 RMK A01 T00100010  RH  100%=      5-min Rain = 0
KST3 170852Z 30007KT 01/01 A301 RMK A01 T00100010  RH  100%=      5-min Rain = 0
KST3 170853Z 30009KT 01/01 A301 RMK A01 T00100010  RH  100%=      5-min Rain = 0
KST3 170854Z 31010KT 01/01 A301 RMK A01 T00100010  RH  100%=      5-min Rain = 0
KST3 170855Z 31009KT 01/01 A301 RMK A01 T00100010  RH  100%=      5-min Rain = 0
KST3 170856Z 31006KT 01/01 A301 RMK A01 T00100010  RH  100%=      5-min Rain = 0
KST3 170857Z 31008KT 01/01 A301 RMK A01 T00100010  RH  100%=      5-min Rain = 0
KST3 170858Z 30008KT 01/01 A301 RMK A01 T00110010  RH  100%=      5-min Rain = 0
KST3 170859Z 31009KT 01/01 A301 RMK A01 T00100010  RH  100%=      5-min Rain = 0
KST3 170900Z 31008KT 01/01 A301 RMK A01 T00110010  RH  100%=      5-min Rain = 0
KST3 170901Z 31011KT 01/01 A3009 RMK A01 T00110010  RH  100%=      5-min Rain = 0
KST3 170902Z 32011KT 01/01 A3009 RMK A01 T00100010  RH  100%=      5-min Rain = 0
KST3 170903Z 32013KT 01/01 A3009 RMK A01 T00090009  RH  100%=      5-min Rain = 0
KST3 170904Z 31011KT 01/01 A3009 RMK A01 T00090009  RH  100%=      5-min Rain = 0
KST3 170905Z 32012KT 01/01 A3009 RMK A01 T00090009  RH  100%=      5-min Rain = 0
KST3 170906Z 32010KT 01/01 A3009 RMK A01 T00080008  RH  100%=      5-min Rain = 0
KST3 170907Z 31008KT 01/01 A3009 RMK A01 T00090009  RH  100%=      5-min Rain = 0
KST3 170908Z 31008KT 01/01 A3009 RMK A01 T00090009  RH  100%=      5-min Rain = 0
KST3 170909Z 30009KT 01/01 A3009 RMK A01 T00090009  RH  100%=      5-min Rain = 0
KST3 170910Z 30008KT 01/01 A3009 RMK A01 T00090009  RH  100%=      5-min Rain = 0
KST3 170911Z 31010KT 01/01 A3009 RMK A01 T00090009  RH  100%=      5-min Rain = 0
KST3 170912Z 31011KT 01/01 A3009 RMK A01 T00090009  RH  100%=      5-min Rain = 0
KST3 170913Z 30010KT 01/01 A3009 RMK A01 T00080008  RH  100%=      5-min Rain = 0
KST3 170914Z 30010KT 01/01 A3009 RMK A01 T00090009  RH  100%=      5-min Rain = 0
KST3 170915Z 30009KT 01/01 A301 RMK A01 T00090009  RH  100%=      5-min Rain = 0
KST3 170916Z 30008KT 01/01 A3009 RMK A01 T00090009  RH  100%=      5-min Rain = 0
KST3 170917Z 29006KT 01/01 A301 RMK A01 T00090009  RH  100%=      5-min Rain = 0
KST3 170918Z 29009KT 01/01 A301 RMK A01 T00100009  RH  100%=      5-min Rain = 0
KST3 170919Z 29009KT 01/01 A301 RMK A01 T00090009  RH  100%=      5-min Rain = 0
KST3 170920Z 29010KT 01/01 A301 RMK A01 T00100010  RH  100%=      5-min Rain = 0
KST3 170921Z 29010KT 01/01 A301 RMK A01 T00090009  RH  100%=      5-min Rain = 0
KST3 170922Z 29009KT 01/01 A301 RMK A01 T00080008  RH  100%=      5-min Rain = 0
KST3 170923Z 28008KT 01/01 A301 RMK A01 T00090009  RH  100%=      5-min Rain = 0
KST3 170924Z 28009KT 01/01 A301 RMK A01 T00090009  RH  100%=      5-min Rain = 0
KST3 170925Z 28008KT 01/01 A301 RMK A01 T00090009  RH  100%=      5-min Rain = 0
KST3 170926Z 28006KT 01/01 A301 RMK A01 T00090009  RH  100%=      5-min Rain = 0
KST3 170927Z 28008KT 01/01 A301 RMK A01 T00090009  RH  100%=      5-min Rain = 0
KST3 170928Z 29010KT 01/01 A301 RMK A01 T00090009  RH  100%=      5-min Rain = 0
KST3 170929Z 29009KT 01/01 A301 RMK A01 T00080008  RH  100%=      5-min Rain = 0
KST3 170930Z 29009KT 01/01 A301 RMK A01 T00070007  RH  100%=      5-min Rain = 0
KST3 170931Z 29008KT 01/01 A301 RMK A01 T00070007  RH  100%=      5-min Rain = 0
KST3 170932Z 29009KT 01/01 A301 RMK A01 T00060006  RH  100%=      5-min Rain = 0
KST3 170933Z 29009KT 01/01 A301 RMK A01 T00050005  RH  100%=      5-min Rain = 0
KST3 170934Z 30008KT 00/00 A301 RMK A01 T00040004  RH  100%=      5-min Rain = 0
KST3 170935Z 30009KT 00/00 A301 RMK A01 T00040003  RH  100%=      5-min Rain = 0
KST3 170936Z 30011KT 00/00 A301 RMK A01 T00030003  RH  100%=      5-min Rain = 0
KST3 170937Z 30010KT 00/00 A301 RMK A01 T00020002  RH  100%=      5-min Rain = 0
KST3 170938Z 29010KT 00/00 A301 RMK A01 T00020002  RH  100%=      5-min Rain = 0
KST3 170939Z 30010KT 00/00 A301 RMK A01 T00020002  RH  100%=      5-min Rain = 0
KST3 170940Z 30010KT 00/00 A301 RMK A01 T00020002  RH  100%=      5-min Rain = 0
KST3 170941Z 29009KT 00/00 A301 RMK A01 T00020002  RH  100%=      5-min Rain = 0
KST3 170942Z 30009KT 00/00 A301 RMK A01 T00010001  RH  100%=      5-min Rain = 0
KST3 170943Z 29010KT 00/00 A301 RMK A01 T00010001  RH  100%=      5-min Rain = 0
KST3 170944Z 29008KT 00/00 A301 RMK A01 T00010001  RH  100%=      5-min Rain = 0
KST3 170945Z 28009KT 00/00 A301 RMK A01 T00010001  RH  100%=      5-min Rain = 0
KST3 170946Z 28009KT 00/00 A301 RMK A01 T00010001  RH  100%=      5-min Rain = 0
KST3 170947Z 28009KT 00/00 A301 RMK A01 T00010001  RH  100%=      5-min Rain = 0
KST3 170948Z 28008KT 00/00 A301 RMK A01 T00020001  RH  100%=      5-min Rain = 0
KST3 170949Z 28008KT 00/00 A301 RMK A01 T00010001  RH  100%=      5-min Rain = 0
KST3 170950Z 28009KT 00/00 A301 RMK A01 T00010001  RH  100%=      5-min Rain = 0
KST3 170951Z 27007KT 00/00 A3011 RMK A01 T00020002  RH  100%=      5-min Rain = 0
KST3 170952Z 27007KT 00/00 A3011 RMK A01 T00020002  RH  100%=      5-min Rain = 0
KST3 170953Z 27006KT 00/00 A3011 RMK A01 T00020002  RH  100%=      5-min Rain = 0
KST3 170954Z 27006KT 00/00 A3011 RMK A01 T00030003  RH  100%=      5-min Rain = 0
KST3 170955Z 27005KT 00/00 A3011 RMK A01 T00030002  RH  100%=      5-min Rain = 0
KST3 170956Z 26007KT 00/00 A3011 RMK A01 T00030003  RH  100%=      5-min Rain = 0
KST3 170957Z 26007KT 00/00 A3011 RMK A01 T00030003  RH  100%=      5-min Rain = 0
KST3 170958Z 25005KT 00/00 A3011 RMK A01 T00030003  RH  100%=      5-min Rain = 0
KST3 170959Z 26006KT 00/00 A3011 RMK A01 T00030003  RH  100%=      5-min Rain = 0
KST3 171000Z 26007KT 00/00 A3011 RMK A01 T00030003  RH  100%=      5-min Rain = 0
KST3 171001Z 25007KT 00/00 A3011 RMK A01 T00030003  RH  100%=      5-min Rain = 0
KST3 171002Z 26007KT 00/00 A3011 RMK A01 T00030002  RH  100%=      5-min Rain = 0
KST3 171003Z 26005KT 00/00 A3011 RMK A01 T00020002  RH  100%=      5-min Rain = 0
KST3 171004Z 26005KT 00/00 A3011 RMK A01 T00010001  RH  100%=      5-min Rain = 0
KST3 171005Z 25004KT 00/00 A3011 RMK A01 T00000000  RH  100%=      5-min Rain = 0
KST3 171006Z 25005KT 00/00 A301 RMK A01 T00000000  RH  100%=      5-min Rain = 0
KST3 171007Z 25005KT 00/00 A301 RMK A01 T00010000  RH  100%=      5-min Rain = 0
KST3 171008Z 25005KT 00/00 A301 RMK A01 T00000000  RH  100%=      5-min Rain = 0
KST3 171009Z 24005KT 00/00 A301 RMK A01 T00000000  RH  100%=      5-min Rain = 0
KST3 171010Z 24006KT 00/00 A301 RMK A01 T00000000  RH  100%=      5-min Rain = 0
KST3 171011Z 24005KT 00/00 A301 RMK A01 T00000000  RH  100%=      5-min Rain = 0
KST3 171012Z 25005KT 00/00 A301 RMK A01 T00000000  RH  100%=      5-min Rain = 0
KST3 171013Z 26005KT 00/00 A301 RMK A01 T00000000  RH  100%=      5-min Rain = 0
KST3 171014Z 26005KT 00/00 A301 RMK A01 T00-000-0  RH  100%=      5-min Rain = 0
KST3 171015Z 27006KT M00/M00 A301 RMK A01 T10011001  RH  100%=      5-min Rain = 0
KST3 171016Z 27006KT M00/M00 A301 RMK A01 T10021002  RH  100%=      5-min Rain = 0
KST3 171017Z 28006KT M00/M00 A301 RMK A01 T10031003  RH  100%=      5-min Rain = 0
KST3 171018Z 28009KT M00/M00 A301 RMK A01 T10031003  RH  100%=      5-min Rain = 0
KST3 171019Z 29009KT M00/M01 A301 RMK A01 T10041005  RH  100%=      5-min Rain = 0
KST3 171020Z 29010KT M01/M01 A301 RMK A01 T10051005  RH  100%=      5-min Rain = 0
KST3 171021Z 29011KT M01/M01 A301 RMK A01 T10061006  RH  100%=      5-min Rain = 0
KST3 171022Z 29012KT M01/M01 A301 RMK A01 T10061006  RH  100%=      5-min Rain = 0
KST3 171023Z 29012KT M01/M01 A3009 RMK A01 T10071007  RH  100%=      5-min Rain = 0
KST3 171024Z 29013KT M01/M01 A3009 RMK A01 T10071007  RH  100%=      5-min Rain = 0
KST3 171025Z 29013KT M01/M01 A3009 RMK A01 T10071007  RH  100%=      5-min Rain = 0
KST3 171026Z 29014KT M01/M01 A3009 RMK A01 T10071007  RH  100%=      5-min Rain = 0
KST3 171027Z 29013KT M01/M01 A3009 RMK A01 T10071007  RH  100%=      5-min Rain = 0
KST3 171028Z 29014KT M01/M01 A3009 RMK A01 T10071007  RH  100%=      5-min Rain = 0
KST3 171029Z 29014KT M01/M01 A3009 RMK A01 T10071007  RH  100%=      5-min Rain = 0
KST3 171030Z 29013KT M01/M01 A3009 RMK A01 T10071007  RH  100%=      5-min Rain = 0
KST3 171031Z 29014KT M01/M01 A3009 RMK A01 T10071007  RH  100%=      5-min Rain = 0
KST3 171032Z 29014KT M01/M01 A3009 RMK A01 T10061007  RH  100%=      5-min Rain = 0
KST3 171033Z 29014KT M01/M01 A3009 RMK A01 T10071007  RH  100%=      5-min Rain = 0
KST3 171034Z 29014KT M01/M01 A3009 RMK A01 T10071007  RH  100%=      5-min Rain = 0
KST3 171035Z 29014KT M01/M01 A3009 RMK A01 T10071007  RH  100%=      5-min Rain = 0
KST3 171036Z 29014KT M01/M01 A3009 RMK A01 T10081008  RH  100%=      5-min Rain = 0
KST3 171037Z 29014KT M01/M01 A3009 RMK A01 T10081008  RH  100%=      5-min Rain = 0
KST3 171038Z 29013KT M01/M01 A3009 RMK A01 T10091009  RH  100%=      5-min Rain = 0
KST3 171039Z 29013KT M01/M01 A3009 RMK A01 T10091009  RH  100%=      5-min Rain = 0
KST3 171040Z 30012KT M01/M01 A3009 RMK A01 T10101010  RH  100%=      5-min Rain = 0
KST3 171041Z 30012KT M01/M01 A3009 RMK A01 T10101010  RH  100%=      5-min Rain = 0
KST3 171042Z 29012KT M01/M01 A3009 RMK A01 T10101010  RH  100%=      5-min Rain = 0
KST3 171043Z 30012KT M01/M01 A3009 RMK A01 T10101010  RH  100%=      5-min Rain = 0
KST3 171044Z 30012KT M01/M01 A3009 RMK A01 T10091010  RH  100%=      5-min Rain = 0
KST3 171045Z 30013KT M01/M01 A3009 RMK A01 T10091009  RH  100%=      5-min Rain = 0
KST3 171046Z 30013KT M01/M01 A3009 RMK A01 T10091009  RH  100%=      5-min Rain = 0
KST3 171047Z 30013KT M01/M01 A3009 RMK A01 T10081008  RH  100%=      5-min Rain = 0
KST3 171048Z 30014KT M01/M01 A3009 RMK A01 T10081008  RH  100%=      5-min Rain = 0
KST3 171049Z 30013KT M01/M01 A3009 RMK A01 T10081008  RH  100%=      5-min Rain = 0
KST3 171050Z 30013KT M01/M01 A3009 RMK A01 T10071008  RH  100%=      5-min Rain = 0
KST3 171051Z 30014KT M01/M01 A3009 RMK A01 T10071007  RH  100%=      5-min Rain = 0
KST3 171052Z 30014KT M01/M01 A3009 RMK A01 T10061006  RH  100%=      5-min Rain = 0
KST3 171053Z 30013KT M01/M01 A3009 RMK A01 T10061006  RH  100%=      5-min Rain = 0
KST3 171054Z 30013KT M01/M01 A3009 RMK A01 T10061006  RH  100%=      5-min Rain = 0
KST3 171055Z 30013KT M01/M01 A3009 RMK A01 T10061006  RH  100%=      5-min Rain = 0
KST3 171056Z 29013KT M01/M01 A3009 RMK A01 T10071007  RH  100%=      5-min Rain = 0
KST3 171057Z 29013KT M01/M01 A301 RMK A01 T10081008  RH  100%=      5-min Rain = 0
KST3 171058Z 29013KT M01/M01 A301 RMK A01 T10081008  RH  100%=      5-min Rain = 0
KST3 171059Z 29013KT M01/M01 A301 RMK A01 T10091009  RH  100%=      5-min Rain = 0
KST3 171100Z 29013KT M01/M01 A301 RMK A01 T10101010  RH  100%=      5-min Rain = 0
KST3 171101Z 29013KT M01/M01 A301 RMK A01 T10101010  RH  100%=      5-min Rain = 0
KST3 171102Z 29013KT M01/M01 A301 RMK A01 T10101010  RH  100%=      5-min Rain = 0
KST3 171103Z 30014KT M01/M01 A301 RMK A01 T10091009  RH  100%=      5-min Rain = 0
KST3 171104Z 30013KT M01/M01 A301 RMK A01 T10091009  RH  100%=      5-min Rain = 0
KST3 171105Z 29013KT M01/M01 A301 RMK A01 T10091009  RH  100%=      5-min Rain = 0
KST3 171106Z 30013KT M01/M01 A301 RMK A01 T10091009  RH  100%=      5-min Rain = 0
KST3 171107Z 29013KT M01/M01 A301 RMK A01 T10091009  RH  100%=      5-min Rain = 0
KST3 171108Z 29013KT M01/M01 A301 RMK A01 T10091009  RH  100%=      5-min Rain = 0
KST3 171109Z 29012KT M01/M01 A301 RMK A01 T10091009  RH  100%=      5-min Rain = 0
KST3 171110Z 29012KT M01/M01 A301 RMK A01 T10091009  RH  100%=      5-min Rain = 0
KST3 171111Z 28011KT M01/M01 A301 RMK A01 T10101010  RH  100%=      5-min Rain = 0
KST3 171112Z 28011KT M01/M01 A301 RMK A01 T10101011  RH  100%=      5-min Rain = 0
KST3 171113Z 28011KT M01/M01 A301 RMK A01 T10111011  RH  100%=      5-min Rain = 0
KST3 171114Z 28010KT M01/M01 A301 RMK A01 T10111011  RH  100%=      5-min Rain = 0
KST3 171115Z 28012KT M01/M01 A301 RMK A01 T10111011  RH  100%=      5-min Rain = 0
KST3 171116Z 29012KT M01/M01 A301 RMK A01 T10111011  RH  100%=      5-min Rain = 0
KST3 171117Z 29012KT M01/M01 A301 RMK A01 T10111011  RH  100%=      5-min Rain = 0
KST3 171118Z 29012KT M01/M01 A301 RMK A01 T10111011  RH  100%=      5-min Rain = 0
KST3 171119Z 29013KT M01/M01 A301 RMK A01 T10111011  RH  100%=      5-min Rain = 0
KST3 171120Z 29014KT M01/M01 A301 RMK A01 T10101010  RH  100%=      5-min Rain = 0
KST3 171121Z 30014KT M01/M01 A301 RMK A01 T10091010  RH  100%=      5-min Rain = 0
KST3 171122Z 30014KT M01/M01 A301 RMK A01 T10081009  RH  100%=      5-min Rain = 0
KST3 171123Z 30014KT M01/M01 A301 RMK A01 T10071007  RH  100%=      5-min Rain = 0
KST3 171124Z 30013KT M01/M01 A301 RMK A01 T10061006  RH  100%=      5-min Rain = 0
KST3 171125Z 30013KT M01/M01 A301 RMK A01 T10061006  RH  100%=      5-min Rain = 0
KST3 171126Z 30013KT M01/M01 A301 RMK A01 T10061006  RH  100%=      5-min Rain = 0
KST3 171127Z 30013KT M01/M01 A301 RMK A01 T10061006  RH  100%=      5-min Rain = 0
KST3 171128Z 29012KT M01/M01 A301 RMK A01 T10061006  RH  100%=      5-min Rain = 0
KST3 171129Z 29012KT M01/M01 A301 RMK A01 T10071007  RH  100%=      5-min Rain = 0
KST3 171130Z 29012KT M01/M01 A301 RMK A01 T10071007  RH  100%=      5-min Rain = 0
KST3 171131Z 29012KT M01/M01 A301 RMK A01 T10081008  RH  100%=      5-min Rain = 0
KST3 171132Z 29012KT M01/M01 A301 RMK A01 T10081008  RH  100%=      5-min Rain = 0
KST3 171133Z 29012KT M01/M01 A301 RMK A01 T10071007  RH  100%=      5-min Rain = 0
KST3 171134Z 29011KT M01/M01 A301 RMK A01 T10061006  RH  100%=      5-min Rain = 0
KST3 171135Z 28011KT M01/M01 A301 RMK A01 T10061006  RH  100%=      5-min Rain = 0
KST3 171136Z 28011KT M01/M01 A301 RMK A01 T10061007  RH  099%=      5-min Rain = 0
KST3 171137Z 28009KT M01/M01 A3011 RMK A01 T10061007  RH  099%=      5-min Rain = 0
KST3 171138Z 27009KT M01/M01 A3011 RMK A01 T10061008  RH  099%=      5-min Rain = 0
KST3 171139Z 27010KT M01/M01 A3011 RMK A01 T10061008  RH  098%=      5-min Rain = 0
KST3 171140Z 27010KT M01/M01 A3011 RMK A01 T10061009  RH  098%=      5-min Rain = 0
KST3 171141Z 27010KT M01/M01 A3011 RMK A01 T10061009  RH  098%=      5-min Rain = 0
KST3 171142Z 27010KT M01/M01 A3011 RMK A01 T10061009  RH  098%=      5-min Rain = 0
KST3 171143Z 27010KT M01/M01 A3011 RMK A01 T10061009  RH  098%=      5-min Rain = 0
KST3 171144Z 27010KT M01/M01 A3011 RMK A01 T10051009  RH  097%=      5-min Rain = 0
KST3 171145Z 28009KT M01/M01 A3011 RMK A01 T10051010  RH  097%=      5-min Rain = 0
KST3 171146Z 28010KT M01/M01 A3011 RMK A01 T10051010  RH  097%=      5-min Rain = 0
KST3 171147Z 28011KT M01/M01 A3011 RMK A01 T10061010  RH  097%=      5-min Rain = 0
KST3 171148Z 29011KT M01/M01 A3011 RMK A01 T10061011  RH  096%=      5-min Rain = 0
KST3 171149Z 29012KT M01/M01 A3011 RMK A01 T10051011  RH  096%=      5-min Rain = 0
KST3 171150Z 29013KT M00/M01 A3011 RMK A01 T10031010  RH  095%=      5-min Rain = 0
KST3 171151Z 29012KT M00/M01 A3011 RMK A01 T10021010  RH  095%=      5-min Rain = 0
KST3 171152Z 29012KT M00/M01 A3011 RMK A01 T10011010  RH  094%=      5-min Rain = 0
KST3 171153Z 30012KT 00/01 A3011 RMK A01 T00-00-11  RH  093%=      5-min Rain = 0
KST3 171154Z 30011KT 00/01 A3011 RMK A01 T00000-12  RH  092%=      5-min Rain = 0
KST3 171155Z 30011KT 00/M01 A3011 RMK A01 T00011012  RH  091%=      5-min Rain = 0
KST3 171156Z 30011KT 00/M01 A3011 RMK A01 T00011013  RH  090%=      5-min Rain = 0
KST3 171157Z 29011KT 00/M01 A3011 RMK A01 T00011014  RH  090%=      5-min Rain = 0
KST3 171158Z 29012KT 00/M02 A3011 RMK A01 T00011015  RH  089%=      5-min Rain = 0
KST3 171159Z 29011KT 00/M02 A3011 RMK A01 T00011015  RH  089%=      5-min Rain = 0
KST3 171200Z 29011KT 00/02 A3011 RMK A01 T00-00-16  RH  089%=      5-min Rain = 0
KST3 171201Z 29011KT M00/M02 A3011 RMK A01 T10011017  RH  089%=      5-min Rain = 0
KST3 171202Z 29010KT M00/M02 A3012 RMK A01 T10011017  RH  089%=      5-min Rain = 0
KST3 171203Z 28009KT M00/M02 A3012 RMK A01 T10011017  RH  089%=      5-min Rain = 0
KST3 171204Z 27008KT M00/M02 A3012 RMK A01 T10021018  RH  089%=      5-min Rain = 0
KST3 171205Z 24007KT M00/M02 A3012 RMK A01 T10021018  RH  089%=      5-min Rain = 0
KST3 171206Z 20006KT M00/M02 A3012 RMK A01 T10031019  RH  089%=      5-min Rain = 0
KST3 171207Z 21007KT M01/M02 A3012 RMK A01 T10071021  RH  090%=      5-min Rain = 0
KST3 171208Z 20008KT M01/M02 A3012 RMK A01 T10121024  RH  092%=      5-min Rain = 0
KST3 171209Z 20008KT M02/M03 A3012 RMK A01 T10161025  RH  093%=      5-min Rain = 0
KST3 171210Z 21008KT M02/M03 A3012 RMK A01 T10181025  RH  095%=      5-min Rain = 0
KST3 171211Z 22006KT M02/M02 A3012 RMK A01 T10181024  RH  096%=      5-min Rain = 0
KST3 171212Z 24006KT M02/M02 A3012 RMK A01 T10181023  RH  097%=      5-min Rain = 0
KST3 171213Z 26006KT M02/M02 A3012 RMK A01 T10181022  RH  098%=      5-min Rain = 0
KST3 171214Z 27006KT M02/M02 A3012 RMK A01 T10181020  RH  098%=      5-min Rain = 0
KST3 171215Z 28007KT M02/M02 A3012 RMK A01 T10161019  RH  098%=      5-min Rain = 0
KST3 171216Z 29008KT M02/M02 A3012 RMK A01 T10151018  RH  098%=      5-min Rain = 0
KST3 171217Z 29007KT M01/M02 A3012 RMK A01 T10131016  RH  098%=      5-min Rain = 0
KST3 171218Z 28007KT M01/M02 A3012 RMK A01 T10101015  RH  096%=      5-min Rain = 0
KST3 171219Z 27006KT M01/M02 A3012 RMK A01 T10091017  RH  094%=      5-min Rain = 0
KST3 171220Z 24006KT M01/M02 A3013 RMK A01 T10081019  RH  093%=      5-min Rain = 0
KST3 171221Z 21008KT M01/M02 A3013 RMK A01 T10101022  RH  092%=      5-min Rain = 0
KST3 171222Z 20009KT M01/M03 A3013 RMK A01 T10131025  RH  092%=      5-min Rain = 0
KST3 171223Z 20011KT M02/M03 A3013 RMK A01 T10151025  RH  093%=      5-min Rain = 0
KST3 171224Z 20010KT M02/M03 A3013 RMK A01 T10171026  RH  094%=      5-min Rain = 0
KST3 171225Z 21009KT M02/M03 A3013 RMK A01 T10191027  RH  095%=      5-min Rain = 0
KST3 171226Z 22009KT M02/M03 A3013 RMK A01 T10211027  RH  096%=      5-min Rain = 0
KST3 171227Z 23008KT M02/M03 A3013 RMK A01 T10221027  RH  097%=      5-min Rain = 0
KST3 171228Z 25008KT M02/M03 A3013 RMK A01 T10231027  RH  097%=      5-min Rain = 0
KST3 171229Z 26008KT M02/M03 A3013 RMK A01 T10241027  RH  098%=      5-min Rain = 0
KST3 171230Z 26008KT M02/M03 A3013 RMK A01 T10241027  RH  098%=      5-min Rain = 0
KST3 171231Z 26008KT M02/M03 A3013 RMK A01 T10241026  RH  099%=      5-min Rain = 0
KST3 171232Z 25008KT M02/M03 A3013 RMK A01 T10241026  RH  099%=      5-min Rain = 0
KST3 171233Z 25008KT M03/M03 A3013 RMK A01 T10251026  RH  099%=      5-min Rain = 0
KST3 171234Z 25008KT M03/M03 A3013 RMK A01 T10251026  RH  099%=      5-min Rain = 0
KST3 171235Z 25007KT M03/M03 A3013 RMK A01 T10251026  RH  099%=      5-min Rain = 0
KST3 171236Z 25008KT M03/M03 A3013 RMK A01 T10251026  RH  099%=      5-min Rain = 0
KST3 171237Z 25008KT M03/M03 A3013 RMK A01 T10251026  RH  100%=      5-min Rain = 0
KST3 171238Z 25009KT M03/M03 A3013 RMK A01 T10251026  RH  100%=      5-min Rain = 0
KST3 171239Z 25009KT M02/M03 A3013 RMK A01 T10241025  RH  100%=      5-min Rain = 0
KST3 171240Z 26008KT M02/M02 A3014 RMK A01 T10241024  RH  100%=      5-min Rain = 0
KST3 171241Z 26008KT M02/M02 A3014 RMK A01 T10231024  RH  100%=      5-min Rain = 0
KST3 171242Z 26007KT M02/M02 A3014 RMK A01 T10231023  RH  100%=      5-min Rain = 0
KST3 171243Z 26007KT M02/M02 A3014 RMK A01 T10231023  RH  100%=      5-min Rain = 0
KST3 171244Z 26007KT M02/M02 A3014 RMK A01 T10231024  RH  099%=      5-min Rain = 0
KST3 171245Z 26007KT M02/M02 A3014 RMK A01 T10231024  RH  099%=      5-min Rain = 0
KST3 171246Z 26008KT M02/M02 A3014 RMK A01 T10231024  RH  099%=      5-min Rain = 0
KST3 171247Z 26008KT M02/M02 A3014 RMK A01 T10211023  RH  099%=      5-min Rain = 0
KST3 171248Z 26009KT M02/M02 A3014 RMK A01 T10201022  RH  099%=      5-min Rain = 0
KST3 171249Z 26009KT M02/M02 A3014 RMK A01 T10181020  RH  098%=      5-min Rain = 0
KST3 171250Z 26009KT M02/M02 A3014 RMK A01 T10171020  RH  098%=      5-min Rain = 0
KST3 171251Z 27009KT M02/M02 A3014 RMK A01 T10151020  RH  097%=      5-min Rain = 0
KST3 171252Z 27008KT M02/M02 A3014 RMK A01 T10151020  RH  096%=      5-min Rain = 0
KST3 171253Z 26008KT M01/M02 A3014 RMK A01 T10141021  RH  095%=      5-min Rain = 0
KST3 171254Z 26008KT M01/M02 A3014 RMK A01 T10141022  RH  094%=      5-min Rain = 0
KST3 171255Z 26009KT M01/M02 A3014 RMK A01 T10141022  RH  094%=      5-min Rain = 0
KST3 171256Z 27009KT M01/M02 A3014 RMK A01 T10141022  RH  094%=      5-min Rain = 0
KST3 171257Z 27009KT M01/M02 A3014 RMK A01 T10141022  RH  094%=      5-min Rain = 0
KST3 171258Z 27009KT M01/M02 A3014 RMK A01 T10131022  RH  094%=      5-min Rain = 0
KST3 171259Z 27009KT M01/M02 A3014 RMK A01 T10121021  RH  093%=      5-min Rain = 0
KST3 171300Z 27009KT M01/M02 A3014 RMK A01 T10101021  RH  093%=      5-min Rain = 0
KST3 171301Z 27009KT M01/M02 A3014 RMK A01 T10101021  RH  092%=      5-min Rain = 0
KST3 171302Z 27010KT M01/M02 A3014 RMK A01 T10101022  RH  091%=      5-min Rain = 0
KST3 171303Z 27009KT M01/M02 A3014 RMK A01 T10101023  RH  091%=      5-min Rain = 0
KST3 171304Z 27009KT M01/M02 A3014 RMK A01 T10111024  RH  091%=      5-min Rain = 0
KST3 171305Z 27010KT M01/M02 A3014 RMK A01 T10111024  RH  091%=      5-min Rain = 0
KST3 171306Z 27009KT M01/M02 A3014 RMK A01 T10111024  RH  091%=      5-min Rain = 0
KST3 171307Z 27010KT M01/M02 A3014 RMK A01 T10111024  RH  091%=      5-min Rain = 0
KST3 171308Z 27010KT M01/M02 A3014 RMK A01 T10101024  RH  090%=      5-min Rain = 0
KST3 171309Z 28010KT M01/M02 A3014 RMK A01 T10101024  RH  090%=      5-min Rain = 0
KST3 171310Z 27010KT M01/M03 A3014 RMK A01 T10101025  RH  090%=      5-min Rain = 0
KST3 171311Z 28010KT M01/M02 A3014 RMK A01 T10101024  RH  090%=      5-min Rain = 0
KST3 171312Z 28010KT M01/M03 A3014 RMK A01 T10091025  RH  089%=      5-min Rain = 0
KST3 171313Z 28010KT M01/M03 A3014 RMK A01 T10101026  RH  089%=      5-min Rain = 0
KST3 171314Z 28010KT M01/M03 A3014 RMK A01 T10101026  RH  089%=      5-min Rain = 0
KST3 171315Z 28010KT M01/M03 A3014 RMK A01 T10101026  RH  089%=      5-min Rain = 0
KST3 171316Z 28010KT M01/M03 A3014 RMK A01 T10091026  RH  089%=      5-min Rain = 0
KST3 171317Z 29010KT M01/M03 A3014 RMK A01 T10101027  RH  088%=      5-min Rain = 0
KST3 171318Z 29010KT M01/M03 A3014 RMK A01 T10101027  RH  088%=      5-min Rain = 0
KST3 171319Z 28010KT M01/M03 A3014 RMK A01 T10091026  RH  088%=      5-min Rain = 0
KST3 171320Z 29010KT M01/M03 A3014 RMK A01 T10081026  RH  088%=      5-min Rain = 0
KST3 171321Z 29010KT M01/M03 A3014 RMK A01 T10081026  RH  087%=      5-min Rain = 0
KST3 171322Z 28010KT M01/M03 A3014 RMK A01 T10071026  RH  087%=      5-min Rain = 0
KST3 171323Z 28009KT M01/M03 A3014 RMK A01 T10061026  RH  087%=      5-min Rain = 0
KST3 171324Z 28010KT M01/M03 A3014 RMK A01 T10061026  RH  086%=      5-min Rain = 0
KST3 171325Z 28010KT M01/M03 A3014 RMK A01 T10061026  RH  086%=      5-min Rain = 0
KST3 171326Z 28009KT M01/M03 A3014 RMK A01 T10061027  RH  086%=      5-min Rain = 0
KST3 171327Z 28010KT M01/M03 A3014 RMK A01 T10061027  RH  086%=      5-min Rain = 0
KST3 171328Z 28009KT M01/M03 A3014 RMK A01 T10061027  RH  086%=      5-min Rain = 0
KST3 171329Z 28009KT M01/M03 A3014 RMK A01 T10061027  RH  086%=      5-min Rain = 0
KST3 171330Z 28008KT M01/M03 A3014 RMK A01 T10061027  RH  086%=      5-min Rain = 0
KST3 171331Z 28008KT M01/M03 A3014 RMK A01 T10061027  RH  085%=      5-min Rain = 0
KST3 171332Z 28008KT M01/M03 A3014 RMK A01 T10061027  RH  085%=      5-min Rain = 0
KST3 171333Z 27008KT M01/M03 A3014 RMK A01 T10061027  RH  085%=      5-min Rain = 0
KST3 171334Z 27007KT M01/M03 A3014 RMK A01 T10051027  RH  085%=      5-min Rain = 0
KST3 171335Z 27008KT M01/M03 A3014 RMK A01 T10051027  RH  085%=      5-min Rain = 0
KST3 171336Z 27008KT M01/M03 A3014 RMK A01 T10071029  RH  085%=      5-min Rain = 0
KST3 171337Z 27007KT M01/M03 A3014 RMK A01 T10081030  RH  085%=      5-min Rain = 0
KST3 171338Z 27007KT M01/M03 A3014 RMK A01 T10091030  RH  086%=      5-min Rain = 0
KST3 171339Z 27007KT M01/M03 A3014 RMK A01 T10101030  RH  086%=      5-min Rain = 0
KST3 171340Z 26008KT M01/M03 A3014 RMK A01 T10101030  RH  087%=      5-min Rain = 0
KST3 171341Z 27007KT M01/M03 A3014 RMK A01 T10101029  RH  087%=      5-min Rain = 0
KST3 171342Z 26008KT M01/M03 A3014 RMK A01 T10111029  RH  087%=      5-min Rain = 0
KST3 171343Z 26008KT M01/M03 A3014 RMK A01 T10111029  RH  087%=      5-min Rain = 0
KST3 171344Z 26007KT M01/M03 A3014 RMK A01 T10111029  RH  087%=      5-min Rain = 0
KST3 171345Z 26008KT M01/M03 A3014 RMK A01 T10111030  RH  087%=      5-min Rain = 0
KST3 171346Z 26008KT M01/M03 A3014 RMK A01 T10111030  RH  087%=      5-min Rain = 0
KST3 171347Z 27009KT M01/M03 A3014 RMK A01 T10111030  RH  087%=      5-min Rain = 0
KST3 171348Z 27008KT M01/M03 A3015 RMK A01 T10111029  RH  087%=      5-min Rain = 0
KST3 171349Z 27009KT M01/M03 A3015 RMK A01 T10111030  RH  087%=      5-min Rain = 0
KST3 171350Z 27009KT M01/M03 A3015 RMK A01 T10121031  RH  087%=      5-min Rain = 0
KST3 171351Z 27008KT M01/M03 A3015 RMK A01 T10131031  RH  088%=      5-min Rain = 0
KST3 171352Z 27009KT M01/M03 A3015 RMK A01 T10141031  RH  088%=      5-min Rain = 0
KST3 171353Z 28009KT M01/M03 A3015 RMK A01 T10141031  RH  088%=      5-min Rain = 0
KST3 171354Z 28009KT M01/M03 A3015 RMK A01 T10131030  RH  089%=      5-min Rain = 0
KST3 171355Z 27009KT M01/M03 A3015 RMK A01 T10131030  RH  088%=      5-min Rain = 0
KST3 171356Z 28009KT M01/M03 A3015 RMK A01 T10131030  RH  088%=      5-min Rain = 0
KST3 171357Z 28010KT M01/M03 A3015 RMK A01 T10131030  RH  088%=      5-min Rain = 0
KST3 171358Z 27009KT M01/M03 A3015 RMK A01 T10131030  RH  088%=      5-min Rain = 0
KST3 171359Z 27010KT M01/M03 A3015 RMK A01 T10121030  RH  088%=      5-min Rain = 0
KST3 171400Z 27009KT M01/M03 A3015 RMK A01 T10111029  RH  088%=      5-min Rain = 0
KST3 171401Z 27009KT M01/M03 A3015 RMK A01 T10111030  RH  087%=      5-min Rain = 0
KST3 171402Z 27009KT M01/M03 A3015 RMK A01 T10111030  RH  087%=      5-min Rain = 0
KST3 171403Z 27009KT M01/M03 A3015 RMK A01 T10111030  RH  087%=      5-min Rain = 0
KST3 171404Z 28009KT M01/M03 A3015 RMK A01 T10101030  RH  087%=      5-min Rain = 0
KST3 171405Z 28008KT M01/M03 A3015 RMK A01 T10101030  RH  086%=      5-min Rain = 0
KST3 171406Z 27008KT M01/M03 A3015 RMK A01 T10091030  RH  086%=      5-min Rain = 0
KST3 171407Z 27008KT M01/M03 A3015 RMK A01 T10091030  RH  086%=      5-min Rain = 0
KST3 171408Z 27008KT M01/M03 A3015 RMK A01 T10091030  RH  086%=      5-min Rain = 0
KST3 171409Z 27008KT M01/M03 A3015 RMK A01 T10101030  RH  086%=      5-min Rain = 0
KST3 171410Z 27008KT M01/M03 A3016 RMK A01 T10091029  RH  086%=      5-min Rain = 0
KST3 171411Z 27008KT M01/M03 A3016 RMK A01 T10081029  RH  086%=      5-min Rain = 0
KST3 171412Z 27008KT M01/M03 A3016 RMK A01 T10081030  RH  085%=      5-min Rain = 0
KST3 171413Z 27009KT M01/M03 A3016 RMK A01 T10081030  RH  085%=      5-min Rain = 0
KST3 171414Z 27008KT M01/M03 A3016 RMK A01 T10071029  RH  085%=      5-min Rain = 0
KST3 171415Z 27009KT M01/M03 A3016 RMK A01 T10061029  RH  085%=      5-min Rain = 0
KST3 171416Z 28009KT M01/M03 A3016 RMK A01 T10061028  RH  085%=      5-min Rain = 0
KST3 171417Z 28009KT M00/M03 A3016 RMK A01 T10041027  RH  084%=      5-min Rain = 0
KST3 171418Z 28008KT M00/M03 A3016 RMK A01 T10031027  RH  084%=      5-min Rain = 0
KST3 171419Z 28009KT M00/M03 A3015 RMK A01 T10031027  RH  083%=      5-min Rain = 0
KST3 171420Z 28009KT M00/M03 A3015 RMK A01 T10021027  RH  083%=      5-min Rain = 0
KST3 171421Z 28008KT M00/M03 A3015 RMK A01 T10011027  RH  083%=      5-min Rain = 0
KST3 171422Z 28009KT M00/M03 A3015 RMK A01 T10011026  RH  083%=      5-min Rain = 0
KST3 171423Z 28009KT M00/M03 A3016 RMK A01 T10011026  RH  083%=      5-min Rain = 0
KST3 171424Z 28008KT 00/03 A3016 RMK A01 T00000-26  RH  083%=      5-min Rain = 0
KST3 171425Z 28008KT 00/M03 A3016 RMK A01 T00011026  RH  083%=      5-min Rain = 0
KST3 171426Z 28008KT 00/M03 A3016 RMK A01 T00011025  RH  082%=      5-min Rain = 0
KST3 171427Z 28008KT 00/M03 A3016 RMK A01 T00021025  RH  082%=      5-min Rain = 0
KST3 171428Z 28009KT 00/M02 A3016 RMK A01 T00031024  RH  082%=      5-min Rain = 0
KST3 171429Z 28009KT 00/M02 A3016 RMK A01 T00031024  RH  082%=      5-min Rain = 0
KST3 171430Z 29010KT 00/M02 A3016 RMK A01 T00041024  RH  082%=      5-min Rain = 0
KST3 171431Z 29010KT 00/M02 A3016 RMK A01 T00041024  RH  082%=      5-min Rain = 0
KST3 171432Z 29010KT 01/M02 A3016 RMK A01 T00051023  RH  082%=      5-min Rain = 0
KST3 171433Z 29010KT 01/M02 A3016 RMK A01 T00061023  RH  081%=      5-min Rain = 0
KST3 171434Z 29010KT 01/M02 A3016 RMK A01 T00071022  RH  081%=      5-min Rain = 0
KST3 171435Z 29011KT 01/M02 A3015 RMK A01 T00091022  RH  080%=      5-min Rain = 0
KST3 171436Z 29011KT 01/M02 A3015 RMK A01 T00091022  RH  080%=      5-min Rain = 0
KST3 171437Z 30011KT 01/M02 A3015 RMK A01 T00101022  RH  079%=      5-min Rain = 0
KST3 171438Z 30011KT 01/M02 A3015 RMK A01 T00111022  RH  079%=      5-min Rain = 0
KST3 171439Z 30011KT 01/M02 A3015 RMK A01 T00141022  RH  077%=      5-min Rain = 0
KST3 171440Z 30011KT 02/M02 A3015 RMK A01 T00161022  RH  076%=      5-min Rain = 0
KST3 171441Z 30011KT 02/M02 A3015 RMK A01 T00171022  RH  075%=      5-min Rain = 0
KST3 171442Z 31010KT 02/M02 A3015 RMK A01 T00181022  RH  074%=      5-min Rain = 0
KST3 171443Z 31010KT 02/M02 A3015 RMK A01 T00191021  RH  075%=      5-min Rain = 0
KST3 171444Z 31011KT 02/M02 A3015 RMK A01 T00191022  RH  075%=      5-min Rain = 0
KST3 171445Z 31011KT 02/M02 A3015 RMK A01 T00191021  RH  075%=      5-min Rain = 0
KST3 171446Z 31010KT 02/M02 A3015 RMK A01 T00191022  RH  075%=      5-min Rain = 0
KST3 171447Z 31010KT 02/M02 A3015 RMK A01 T00191022  RH  074%=      5-min Rain = 0
KST3 171448Z 31009KT 02/M02 A3014 RMK A01 T00201022  RH  074%=      5-min Rain = 0
KST3 171449Z 32009KT 02/M02 A3014 RMK A01 T00211021  RH  074%=      5-min Rain = 0
KST3 171450Z 32009KT 02/M02 A3014 RMK A01 T00231020  RH  073%=      5-min Rain = 0
KST3 171451Z 32009KT 02/M02 A3014 RMK A01 T00241020  RH  073%=      5-min Rain = 0
KST3 171452Z 32009KT 03/M02 A3014 RMK A01 T00251019  RH  073%=      5-min Rain = 0
KST3 171453Z 32009KT 03/M02 A3014 RMK A01 T00261018  RH  073%=      5-min Rain = 0
KST3 171454Z 32009KT 03/M02 A3014 RMK A01 T00261017  RH  073%=      5-min Rain = 0
KST3 171455Z 33008KT 03/M02 A3014 RMK A01 T00261016  RH  074%=      5-min Rain = 0
KST3 171456Z 33008KT 03/M02 A3014 RMK A01 T00261017  RH  073%=      5-min Rain = 0
KST3 171457Z 34008KT 03/M02 A3014 RMK A01 T00261016  RH  074%=      5-min Rain = 0
KST3 171458Z 34007KT 03/M02 A3014 RMK A01 T00261015  RH  074%=      5-min Rain = 0
KST3 171459Z 34007KT 03/M01 A3014 RMK A01 T00271013  RH  075%=      5-min Rain = 0
KST3 171500Z 34007KT 03/M01 A3014 RMK A01 T00291012  RH  074%=      5-min Rain = 0
KST3 171501Z 34007KT 03/M01 A3014 RMK A01 T00301009  RH  075%=      5-min Rain = 0
KST3 171502Z 34006KT 03/M01 A3014 RMK A01 T00321007  RH  075%=      5-min Rain = 0
KST3 171503Z 33006KT 03/M01 A3014 RMK A01 T00341006  RH  075%=      5-min Rain = 0
KST3 171504Z 34006KT 04/M00 A3015 RMK A01 T00361004  RH  075%=      5-min Rain = 0
KST3 171505Z 34006KT 04/M00 A3015 RMK A01 T00391004  RH  074%=      5-min Rain = 0
KST3 171506Z 33005KT 04/M00 A3015 RMK A01 T00401002  RH  074%=      5-min Rain = 0
KST3 171507Z 33004KT 04/00 A3015 RMK A01 T00410004  RH  076%=      5-min Rain = 0
KST3 171508Z 33005KT 04/01 A3015 RMK A01 T00430007  RH  078%=      5-min Rain = 0
KST3 171509Z 34006KT 05/01 A3015 RMK A01 T00450005  RH  075%=      5-min Rain = 0
KST3 171510Z 33006KT 05/00 A3015 RMK A01 T00480004  RH  073%=      5-min Rain = 0
KST3 171511Z 33006KT 05/00 A3015 RMK A01 T00500004  RH  072%=      5-min Rain = 0
KST3 171512Z 33006KT 05/01 A3015 RMK A01 T00530006  RH  072%=      5-min Rain = 0
KST3 171513Z 33006KT 05/01 A3015 RMK A01 T00540007  RH  072%=      5-min Rain = 0
KST3 171514Z 33006KT 06/01 A3015 RMK A01 T00560010  RH  072%=      5-min Rain = 0
KST3 171515Z 33006KT 06/01 A3015 RMK A01 T00580013  RH  073%=      5-min Rain = 0
KST3 171516Z 33006KT 06/02 A3015 RMK A01 T00580015  RH  074%=      5-min Rain = 0
KST3 171517Z 33006KT 06/01 A3015 RMK A01 T00590014  RH  073%=      5-min Rain = 0
KST3 171518Z 33006KT 06/01 A3015 RMK A01 T00610014  RH  072%=      5-min Rain = 0
KST3 171519Z 33006KT 06/02 A3015 RMK A01 T00610017  RH  073%=      5-min Rain = 0
KST3 171520Z 33005KT 06/02 A3015 RMK A01 T00620020  RH  074%=      5-min Rain = 0
KST3 171521Z 33005KT 06/02 A3015 RMK A01 T00620023  RH  076%=      5-min Rain = 0
KST3 171522Z 33005KT 06/02 A3015 RMK A01 T00620023  RH  077%=      5-min Rain = 0
KST3 171523Z 33005KT 06/02 A3015 RMK A01 T00610024  RH  077%=      5-min Rain = 0
KST3 171524Z 33004KT 06/03 A3015 RMK A01 T00610027  RH  079%=      5-min Rain = 0
KST3 171525Z 34004KT 06/03 A3015 RMK A01 T00610026  RH  078%=      5-min Rain = 0
KST3 171526Z 34005KT 06/02 A3015 RMK A01 T00620024  RH  077%=      5-min Rain = 0
KST3 171527Z 34004KT 06/03 A3015 RMK A01 T00630028  RH  078%=      5-min Rain = 0
KST3 171528Z 33003KT 07/03 A3016 RMK A01 T00650026  RH  076%=      5-min Rain = 0
KST3 171529Z 32003KT 07/03 A3016 RMK A01 T00670025  RH  074%=      5-min Rain = 0
KST3 171530Z 32003KT 07/03 A3016 RMK A01 T00680027  RH  075%=      5-min Rain = 0
KST3 171531Z 32003KT 07/03 A3016 RMK A01 T00700027  RH  074%=      5-min Rain = 0
KST3 171532Z 32002KT 07/03 A3016 RMK A01 T00710025  RH  073%=      5-min Rain = 0
KST3 171533Z 31003KT 07/02 A3016 RMK A01 T00720023  RH  071%=      5-min Rain = 0
KST3 171534Z 31002KT 07/03 A3016 RMK A01 T00740026  RH  072%=      5-min Rain = 0
KST3 171535Z 31003KT 08/03 A3017 RMK A01 T00750029  RH  072%=      5-min Rain = 0
KST3 171536Z 31003KT 08/03 A3017 RMK A01 T00770026  RH  070%=      5-min Rain = 0
KST3 171537Z 31002KT 08/03 A3017 RMK A01 T00780027  RH  070%=      5-min Rain = 0
KST3 171538Z 31003KT 08/03 A3017 RMK A01 T00790026  RH  069%=      5-min Rain = 0
KST3 171539Z 31003KT 08/03 A3017 RMK A01 T00810025  RH  068%=      5-min Rain = 0
KST3 171540Z 31003KT 08/02 A3017 RMK A01 T00820022  RH  066%=      5-min Rain = 0
KST3 171541Z 31003KT 08/02 A3017 RMK A01 T00830024  RH  066%=      5-min Rain = 0
KST3 171542Z 31003KT 08/02 A3017 RMK A01 T00840023  RH  065%=      5-min Rain = 0
KST3 171543Z 29003KT 09/03 A3017 RMK A01 T00860026  RH  066%=      5-min Rain = 0
KST3 171544Z 28004KT 09/03 A3017 RMK A01 T00860033  RH  069%=      5-min Rain = 0
KST3 171545Z 27005KT 09/04 A3017 RMK A01 T00860037  RH  071%=      5-min Rain = 0
KST3 171546Z 27005KT 08/03 A3017 RMK A01 T00820033  RH  071%=      5-min Rain = 0
KST3 171547Z 28004KT 08/03 A3018 RMK A01 T00790032  RH  072%=      5-min Rain = 0
KST3 171548Z 28004KT 08/03 A3018 RMK A01 T00780030  RH  072%=      5-min Rain = 0
KST3 171549Z 27004KT 08/03 A3018 RMK A01 T00780030  RH  072%=      5-min Rain = 0
KST3 171550Z 28005KT 08/03 A3018 RMK A01 T00790034  RH  073%=      5-min Rain = 0
KST3 171551Z 28005KT 08/03 A3018 RMK A01 T00780033  RH  073%=      5-min Rain = 0
KST3 171552Z 28005KT 08/03 A3018 RMK A01 T00760030  RH  072%=      5-min Rain = 0
KST3 171553Z 27004KT 08/03 A3018 RMK A01 T00750031  RH  073%=      5-min Rain = 0
KST3 171554Z 25004KT 07/03 A3018 RMK A01 T00740029  RH  073%=      5-min Rain = 0
KST3 171555Z 24005KT 07/03 A3018 RMK A01 T00730031  RH  074%=      5-min Rain = 0
KST3 171556Z 23005KT 07/03 A3018 RMK A01 T00740030  RH  074%=      5-min Rain = 0
KST3 171557Z 24006KT 07/03 A3018 RMK A01 T00730027  RH  073%=      5-min Rain = 0
KST3 171558Z 25005KT 07/02 A3018 RMK A01 T00700022  RH  072%=      5-min Rain = 0
KST3 171559Z 26004KT 07/02 A3018 RMK A01 T00670020  RH  072%=      5-min Rain = 0
KST3 171600Z 28003KT 07/02 A3018 RMK A01 T00670022  RH  073%=      5-min Rain = 0
KST3 171601Z 29003KT 07/02 A3018 RMK A01 T00670021  RH  073%=      5-min Rain = 0
KST3 171602Z 28003KT 07/02 A3018 RMK A01 T00670023  RH  073%=      5-min Rain = 0
KST3 171603Z 28003KT 07/03 A3018 RMK A01 T00690025  RH  073%=      5-min Rain = 0
KST3 171604Z 28003KT 07/02 A3018 RMK A01 T00700023  RH  072%=      5-min Rain = 0
KST3 171605Z 26003KT 07/02 A3018 RMK A01 T00710023  RH  072%=      5-min Rain = 0
KST3 171606Z 27004KT 07/03 A3018 RMK A01 T00710025  RH  073%=      5-min Rain = 0
KST3 171607Z 27004KT 07/03 A3018 RMK A01 T00720026  RH  073%=      5-min Rain = 0
KST3 171608Z 29004KT 07/03 A3018 RMK A01 T00710025  RH  072%=      5-min Rain = 0
KST3 171609Z 30004KT 07/03 A3018 RMK A01 T00710026  RH  073%=      5-min Rain = 0
KST3 171610Z 32003KT 07/03 A3018 RMK A01 T00720025  RH  072%=      5-min Rain = 0
KST3 171611Z 32005KT 07/03 A3018 RMK A01 T00740027  RH  072%=      5-min Rain = 0
KST3 171612Z 32006KT 08/03 A3017 RMK A01 T00760029  RH  072%=      5-min Rain = 0
KST3 171613Z 32006KT 08/03 A3018 RMK A01 T00770029  RH  071%=      5-min Rain = 0
KST3 171614Z 32006KT 08/03 A3018 RMK A01 T00770028  RH  071%=      5-min Rain = 0
KST3 171615Z 31006KT 08/03 A3018 RMK A01 T00770026  RH  070%=      5-min Rain = 0
KST3 171616Z 32005KT 08/03 A3018 RMK A01 T00770028  RH  071%=      5-min Rain = 0
KST3 171617Z 32005KT 08/03 A3018 RMK A01 T00770030  RH  072%=      5-min Rain = 0
KST3 171618Z 33004KT 08/03 A3018 RMK A01 T00790029  RH  071%=      5-min Rain = 0
KST3 171619Z 32004KT 08/03 A3018 RMK A01 T00800028  RH  070%=      5-min Rain = 0
KST3 171620Z 30002KT 08/02 A3018 RMK A01 T00810024  RH  067%=      5-min Rain = 0
KST3 171621Z 29002KT 08/02 A3018 RMK A01 T00830023  RH  066%=      5-min Rain = 0
KST3 171622Z 27002KT 08/02 A3018 RMK A01 T00840022  RH  065%=      5-min Rain = 0
KST3 171623Z 29002KT 09/02 A3018 RMK A01 T00860023  RH  065%=      5-min Rain = 0
KST3 171624Z 31003KT 09/02 A3018 RMK A01 T00880023  RH  064%=      5-min Rain = 0
KST3 171625Z 32003KT 09/02 A3018 RMK A01 T00900022  RH  062%=      5-min Rain = 0
KST3 171626Z 33004KT 09/02 A3018 RMK A01 T00920023  RH  062%=      5-min Rain = 0
KST3 171627Z 34004KT 09/02 A3018 RMK A01 T00930022  RH  061%=      5-min Rain = 0
KST3 171628Z 35004KT 10/02 A3018 RMK A01 T00950024  RH  061%=      5-min Rain = 0
KST3 171629Z 35003KT 10/03 A3018 RMK A01 T00960026  RH  062%=      5-min Rain = 0
KST3 171630Z 35004KT 10/03 A3018 RMK A01 T00980026  RH  061%=      5-min Rain = 0
KST3 171631Z 35003KT 10/02 A3018 RMK A01 T00990023  RH  059%=      5-min Rain = 0
KST3 171632Z 35002KT 10/02 A3018 RMK A01 T01010018  RH  056%=      5-min Rain = 0
KST3 171633Z 33001KT 10/02 A3018 RMK A01 T01020017  RH  056%=      5-min Rain = 0
KST3 171634Z 01003KT 10/02 A3018 RMK A01 T01030021  RH  057%=      5-min Rain = 0
KST3 171635Z 02005KT 10/01 A3018 RMK A01 T01040014  RH  054%=      5-min Rain = 0
KST3 171636Z 01004KT 11/01 A3018 RMK A01 T01060011  RH  052%=      5-min Rain = 0
KST3 171637Z 02003KT 11/01 A3019 RMK A01 T01060009  RH  051%=      5-min Rain = 0
KST3 171638Z 01002KT 11/01 A3019 RMK A01 T01060009  RH  051%=      5-min Rain = 0
KST3 171639Z 03001KT 11/01 A3019 RMK A01 T01070011  RH  052%=      5-min Rain = 0
KST3 171640Z 02004KT 11/01 A3019 RMK A01 T01080009  RH  051%=      5-min Rain = 0
KST3 171641Z 00003KT 11/00 A3019 RMK A01 T01080003  RH  048%=      5-min Rain = 0
KST3 171642Z 02001KT 11/00 A3019 RMK A01 T01080002  RH  048%=      5-min Rain = 0
KST3 171643Z 01002KT 11/00 A3019 RMK A01 T01090004  RH  048%=      5-min Rain = 0
KST3 171644Z 06003KT 11/01 A3019 RMK A01 T01100007  RH  049%=      5-min Rain = 0
KST3 171645Z 09002KT 11/00 A3019 RMK A01 T01110003  RH  047%=      5-min Rain = 0
KST3 171646Z 07003KT 11/00 A3019 RMK A01 T01110000  RH  046%=      5-min Rain = 0
KST3 171647Z 06003KT 11/00 A3019 RMK A01 T01110002  RH  047%=      5-min Rain = 0
KST3 171648Z 05004KT 11/00 A3019 RMK A01 T01110001  RH  047%=      5-min Rain = 0
KST3 171649Z 06004KT 11/00 A3019 RMK A01 T01110000  RH  046%=      5-min Rain = 0
KST3 171650Z 06004KT 11/00 A3019 RMK A01 T01120003  RH  047%=      5-min Rain = 0
KST3 171651Z 06002KT 11/00 A3019 RMK A01 T01120000  RH  046%=      5-min Rain = 0
KST3 171652Z 05002KT 11/M00 A3019 RMK A01 T01121002  RH  045%=      5-min Rain = 0
KST3 171653Z 08002KT 11/M00 A3019 RMK A01 T01111001  RH  046%=      5-min Rain = 0
KST3 171654Z 11000KT 11/00 A3019 RMK A01 T01120001  RH  046%=      5-min Rain = 0
KST3 171655Z 06001KT 11/00 A3019 RMK A01 T011400-0  RH  045%=      5-min Rain = 0
KST3 171656Z 05003KT 12/00 A3019 RMK A01 T01150003  RH  046%=      5-min Rain = 0
KST3 171657Z 05002KT 12/M00 A3019 RMK A01 T01151002  RH  044%=      5-min Rain = 0
KST3 171658Z 06001KT 11/M00 A3019 RMK A01 T01141001  RH  045%=      5-min Rain = 0
KST3 171659Z 08001KT 11/M00 A3019 RMK A01 T01141001  RH  045%=      5-min Rain = 0
KST3 171700Z 00000KT 12/M00 A3019 RMK A01 T01151002  RH  044%=      5-min Rain = 0
KST3 171701Z 00000KT 12/M00 A3019 RMK A01 T01171002  RH  044%=      5-min Rain = 0
KST3 171702Z 00000KT 12/M00 A302 RMK A01 T01191001  RH  044%=      5-min Rain = 0
KST3 171703Z 08000KT 12/M00 A302 RMK A01 T01191001  RH  044%=      5-min Rain = 0
KST3 171704Z 08002KT 12/00 A302 RMK A01 T01200000  RH  044%=      5-min Rain = 0
KST3 171705Z 07002KT 12/00 A302 RMK A01 T01210000  RH  044%=      5-min Rain = 0
KST3 171706Z 06002KT 12/00 A3019 RMK A01 T011900-0  RH  044%=      5-min Rain = 0
KST3 171707Z 05002KT 12/00 A3019 RMK A01 T01190001  RH  044%=      5-min Rain = 0
KST3 171708Z 03003KT 12/00 A3019 RMK A01 T01190001  RH  044%=      5-min Rain = 0
KST3 171709Z 01001KT 12/00 A3019 RMK A01 T01190002  RH  044%=      5-min Rain = 0
KST3 171710Z 03002KT 12/00 A3019 RMK A01 T01190002  RH  045%=      5-min Rain = 0
KST3 171711Z 02002KT 12/00 A302 RMK A01 T01190003  RH  045%=      5-min Rain = 0
KST3 171712Z 05000KT 12/01 A302 RMK A01 T01200005  RH  045%=      5-min Rain = 0
KST3 171713Z 09002KT 12/00 A302 RMK A01 T01220003  RH  044%=      5-min Rain = 0
KST3 171714Z 16003KT 12/00 A302 RMK A01 T01220004  RH  044%=      5-min Rain = 0
KST3 171715Z 17004KT 12/01 A302 RMK A01 T01240007  RH  044%=      5-min Rain = 0
KST3 171716Z 18003KT 13/00 A302 RMK A01 T01250001  RH  043%=      5-min Rain = 0
KST3 171717Z 15003KT 12/00 A302 RMK A01 T01230003  RH  043%=      5-min Rain = 0
KST3 171718Z 14004KT 12/00 A302 RMK A01 T01240004  RH  044%=      5-min Rain = 0
KST3 171719Z 13003KT 12/00 A302 RMK A01 T01220001  RH  043%=      5-min Rain = 0
KST3 171720Z 12002KT 12/00 A302 RMK A01 T01210001  RH  044%=      5-min Rain = 0
KST3 171721Z 20002KT 12/01 A302 RMK A01 T01220005  RH  045%=      5-min Rain = 0
KST3 171722Z 19003KT 12/00 A3019 RMK A01 T01230003  RH  044%=      5-min Rain = 0
KST3 171723Z 19004KT 12/00 A3019 RMK A01 T01220002  RH  044%=      5-min Rain = 0
KST3 171724Z 19002KT 12/00 A3019 RMK A01 T01200000  RH  044%=      5-min Rain = 0
KST3 171725Z 10001KT 12/00 A3019 RMK A01 T01190002  RH  044%=      5-min Rain = 0
KST3 171726Z 11002KT 12/00 A3019 RMK A01 T01190003  RH  045%=      5-min Rain = 0
KST3 171727Z 14002KT 12/00 A3019 RMK A01 T01200003  RH  044%=      5-min Rain = 0
KST3 171728Z 19003KT 12/01 A3019 RMK A01 T01210005  RH  045%=      5-min Rain = 0
KST3 171729Z 16005KT 12/01 A3019 RMK A01 T01240006  RH  044%=      5-min Rain = 0
KST3 171730Z 14005KT 12/01 A3019 RMK A01 T01240005  RH  044%=      5-min Rain = 0
KST3 171731Z 14003KT 13/00 A3019 RMK A01 T01260003  RH  043%=      5-min Rain = 0
KST3 171732Z 17003KT 12/00 A3019 RMK A01 T01240001  RH  043%=      5-min Rain = 0
KST3 171733Z 16004KT 12/00 A3019 RMK A01 T01230002  RH  043%=      5-min Rain = 0
KST3 171734Z 14002KT 12/00 A3019 RMK A01 T01230001  RH  043%=      5-min Rain = 0
KST3 171735Z 14002KT 12/M00 A3019 RMK A01 T01231001  RH  042%=      5-min Rain = 0
KST3 171736Z 17001KT 12/00 A3019 RMK A01 T012300-0  RH  043%=      5-min Rain = 0
KST3 171737Z 18004KT 12/00 A3019 RMK A01 T01230001  RH  043%=      5-min Rain = 0
KST3 171738Z 18004KT 12/00 A3019 RMK A01 T01240000  RH  042%=      5-min Rain = 0
KST3 171739Z 20004KT 13/00 A3019 RMK A01 T012500-0  RH  042%=      5-min Rain = 0
KST3 171740Z 21005KT 13/00 A3019 RMK A01 T012500-0  RH  042%=      5-min Rain = 0
KST3 171741Z 21005KT 13/00 A3019 RMK A01 T01250000  RH  042%=      5-min Rain = 0
KST3 171742Z 19006KT 13/00 A3019 RMK A01 T01270002  RH  042%=      5-min Rain = 0
KST3 171743Z 18007KT 13/00 A3019 RMK A01 T01270000  RH  042%=      5-min Rain = 0
KST3 171744Z 18005KT 13/00 A3019 RMK A01 T01280003  RH  042%=      5-min Rain = 0
KST3 171745Z 19004KT 13/00 A3019 RMK A01 T01290001  RH  041%=      5-min Rain = 0
KST3 171746Z 18001KT 13/M00 A3019 RMK A01 T01281001  RH  041%=      5-min Rain = 0
KST3 171747Z 20005KT 13/M00 A3019 RMK A01 T01271001  RH  041%=      5-min Rain = 0
KST3 171748Z 17005KT 13/01 A3019 RMK A01 T01290005  RH  043%=      5-min Rain = 0
KST3 171749Z 16007KT 13/01 A3019 RMK A01 T01290006  RH  043%=      5-min Rain = 0
KST3 171750Z 17008KT 13/01 A3019 RMK A01 T01290007  RH  043%=      5-min Rain = 0
KST3 171751Z 20004KT 13/01 A3019 RMK A01 T01270006  RH  043%=      5-min Rain = 0
KST3 171752Z 22002KT 13/01 A3019 RMK A01 T01260006  RH  044%=      5-min Rain = 0
KST3 171753Z 21004KT 13/01 A3019 RMK A01 T01250006  RH  044%=      5-min Rain = 0
KST3 171754Z 18006KT 13/01 A3019 RMK A01 T01270009  RH  045%=      5-min Rain = 0
KST3 171755Z 20006KT 13/01 A3019 RMK A01 T01300011  RH  044%=      5-min Rain = 0
KST3 171756Z 19007KT 13/01 A3018 RMK A01 T01300009  RH  043%=      5-min Rain = 0
KST3 171757Z 19006KT 13/01 A3018 RMK A01 T01290007  RH  043%=      5-min Rain = 0
KST3 171758Z 20007KT 13/01 A3018 RMK A01 T01280007  RH  044%=      5-min Rain = 0
KST3 171759Z 21005KT 12/00 A3018 RMK A01 T01240004  RH  044%=      5-min Rain = 0
KST3 171800Z 21004KT 12/01 A3018 RMK A01 T01230007  RH  045%=      5-min Rain = 0
KST3 171801Z 22005KT 13/01 A3018 RMK A01 T01260009  RH  045%=      5-min Rain = 0
KST3 171802Z 20005KT 13/01 A3018 RMK A01 T01280008  RH  044%=      5-min Rain = 0
KST3 171803Z 21006KT 13/01 A3018 RMK A01 T01290007  RH  043%=      5-min Rain = 0
KST3 171804Z 20004KT 13/01 A3018 RMK A01 T01300006  RH  043%=      5-min Rain = 0
KST3 171805Z 16006KT 13/01 A3018 RMK A01 T01300006  RH  043%=      5-min Rain = 0
KST3 171806Z 17003KT 13/00 A3018 RMK A01 T01290003  RH  042%=      5-min Rain = 0
KST3 171807Z 16005KT 13/00 A3018 RMK A01 T01270002  RH  042%=      5-min Rain = 0
KST3 171808Z 17006KT 13/00 A3018 RMK A01 T01270004  RH  043%=      5-min Rain = 0
KST3 171809Z 17006KT 13/00 A3018 RMK A01 T01280004  RH  042%=      5-min Rain = 0
KST3 171810Z 15005KT 13/00 A3018 RMK A01 T01280003  RH  042%=      5-min Rain = 0
KST3 171811Z 18005KT 13/00 A3018 RMK A01 T01280002  RH  042%=      5-min Rain = 0
KST3 171812Z 17006KT 13/00 A3018 RMK A01 T01290004  RH  042%=      5-min Rain = 0
KST3 171813Z 14006KT 13/00 A3018 RMK A01 T01310002  RH  041%=      5-min Rain = 0
KST3 171814Z 13007KT 13/00 A3017 RMK A01 T01320001  RH  041%=      5-min Rain = 0
KST3 171815Z 13004KT 13/M00 A3017 RMK A01 T01291003  RH  040%=      5-min Rain = 0
KST3 171816Z 12002KT 13/M00 A3017 RMK A01 T01261004  RH  041%=      5-min Rain = 0
KST3 171817Z 16003KT 13/M00 A3017 RMK A01 T01261002  RH  041%=      5-min Rain = 0
KST3 171818Z 18006KT 13/M00 A3017 RMK A01 T01281003  RH  040%=      5-min Rain = 0
KST3 171819Z 16008KT 13/M01 A3017 RMK A01 T01291005  RH  040%=      5-min Rain = 0
KST3 171820Z 16006KT 13/M00 A3017 RMK A01 T01311004  RH  040%=      5-min Rain = 0
KST3 171821Z 13006KT 13/M01 A3017 RMK A01 T01311006  RH  039%=      5-min Rain = 0
KST3 171822Z 13006KT 13/M01 A3017 RMK A01 T01311008  RH  038%=      5-min Rain = 0
KST3 171823Z 14007KT 13/M01 A3016 RMK A01 T01311009  RH  038%=      5-min Rain = 0
KST3 171824Z 15006KT 13/M01 A3016 RMK A01 T01311012  RH  037%=      5-min Rain = 0
KST3 171825Z 16007KT 13/M01 A3016 RMK A01 T01301011  RH  038%=      5-min Rain = 0
KST3 171826Z 16007KT 13/M01 A3016 RMK A01 T01301011  RH  038%=      5-min Rain = 0
KST3 171827Z 16006KT 13/M01 A3016 RMK A01 T01311012  RH  037%=      5-min Rain = 0
KST3 171828Z 16007KT 13/M01 A3016 RMK A01 T01301012  RH  037%=      5-min Rain = 0
KST3 171829Z 15009KT 13/M01 A3016 RMK A01 T01291010  RH  038%=      5-min Rain = 0
KST3 171830Z 16008KT 13/M01 A3016 RMK A01 T01291010  RH  038%=      5-min Rain = 0
KST3 171831Z 15005KT 13/M01 A3016 RMK A01 T01291011  RH  038%=      5-min Rain = 0
KST3 171832Z 14005G10KT 13/M01 A3016 RMK A01 T01311008  RH  038%=      5-min Rain = 0
KST3 171833Z 16007KT 13/M01 A3016 RMK A01 T01331009  RH  038%=      5-min Rain = 0
KST3 171834Z 16005KT 13/M01 A3016 RMK A01 T01321011  RH  037%=      5-min Rain = 0
KST3 171835Z 16004KT 13/M01 A3016 RMK A01 T01331012  RH  037%=      5-min Rain = 0
KST3 171836Z 17008KT 13/M01 A3016 RMK A01 T01341010  RH  037%=      5-min Rain = 0
KST3 171837Z 17007KT 14/M01 A3016 RMK A01 T01351013  RH  036%=      5-min Rain = 0
KST3 171838Z 16006KT 14/M01 A3016 RMK A01 T01351014  RH  036%=      5-min Rain = 0
KST3 171839Z 17007KT 14/M01 A3016 RMK A01 T01381012  RH  035%=      5-min Rain = 0
KST3 171840Z 17007KT 14/M01 A3016 RMK A01 T01401014  RH  035%=      5-min Rain = 0
KST3 171841Z 16006KT 14/M02 A3016 RMK A01 T01381017  RH  034%=      5-min Rain = 0
KST3 171842Z 17007KT 14/M02 A3015 RMK A01 T01361016  RH  035%=      5-min Rain = 0
KST3 171843Z 18004KT 14/M02 A3015 RMK A01 T01351015  RH  035%=      5-min Rain = 0
KST3 171844Z 18007KT 14/M02 A3015 RMK A01 T01361015  RH  035%=      5-min Rain = 0
KST3 171845Z 17005KT 14/M02 A3015 RMK A01 T01361017  RH  035%=      5-min Rain = 0
KST3 171846Z 17006KT 14/M02 A3015 RMK A01 T01351017  RH  035%=      5-min Rain = 0
KST3 171847Z 17008KT 14/M02 A3015 RMK A01 T01361016  RH  035%=      5-min Rain = 0
KST3 171848Z 18006KT 14/M02 A3015 RMK A01 T01381015  RH  035%=      5-min Rain = 0
KST3 171849Z 18007KT 14/M02 A3015 RMK A01 T01381016  RH  034%=      5-min Rain = 0
KST3 171850Z 18006KT 14/M02 A3015 RMK A01 T01371017  RH  034%=      5-min Rain = 0
KST3 171851Z 17007KT 14/M02 A3015 RMK A01 T01391015  RH  035%=      5-min Rain = 0
KST3 171852Z 16008KT 14/M02 A3015 RMK A01 T01421018  RH  033%=      5-min Rain = 0
KST3 171853Z 16005KT 14/M02 A3014 RMK A01 T01401020  RH  033%=      5-min Rain = 0
KST3 171854Z 16007KT 14/M02 A3014 RMK A01 T01401019  RH  033%=      5-min Rain = 0
KST3 171855Z 16007KT 14/M02 A3014 RMK A01 T01411020  RH  033%=      5-min Rain = 0
KST3 171856Z 16007KT 14/M02 A3014 RMK A01 T01421019  RH  033%=      5-min Rain = 0
KST3 171857Z 14007KT 14/M02 A3014 RMK A01 T01411017  RH  034%=      5-min Rain = 0
KST3 171858Z 15005KT 14/M02 A3014 RMK A01 T01391019  RH  034%=      5-min Rain = 0
KST3 171859Z 16006KT 14/M02 A3014 RMK A01 T01381018  RH  034%=      5-min Rain = 0
KST3 171900Z 16005KT 14/M02 A3014 RMK A01 T01391016  RH  034%=      5-min Rain = 0
KST3 171901Z 16006KT 14/M02 A3014 RMK A01 T01401016  RH  034%=      5-min Rain = 0
KST3 171902Z 16007KT 15/M01 A3014 RMK A01 T01451011  RH  034%=      5-min Rain = 0
KST3 171903Z 17008KT 15/M01 A3014 RMK A01 T01471014  RH  033%=      5-min Rain = 0
KST3 171904Z 15005KT 14/M02 A3014 RMK A01 T01441017  RH  033%=      5-min Rain = 0
KST3 171905Z 16006KT 14/M01 A3014 RMK A01 T01441013  RH  034%=      5-min Rain = 0
KST3 171906Z 17008KT 15/M01 A3014 RMK A01 T01451014  RH  033%=      5-min Rain = 0
KST3 171907Z 17006KT 15/M01 A3014 RMK A01 T01451014  RH  033%=      5-min Rain = 0
KST3 171908Z 17006KT 15/M01 A3014 RMK A01 T01461014  RH  033%=      5-min Rain = 0
KST3 171909Z 18007KT 15/M02 A3014 RMK A01 T01471018  RH  032%=      5-min Rain = 0
KST3 171910Z 19008KT 15/M02 A3014 RMK A01 T01451016  RH  033%=      5-min Rain = 0
KST3 171911Z 18008KT 15/M02 A3014 RMK A01 T01461015  RH  033%=      5-min Rain = 0
KST3 171912Z 17008KT 15/M01 A3014 RMK A01 T01461013  RH  033%=      5-min Rain = 0
KST3 171913Z 19008KT 15/M01 A3014 RMK A01 T01471013  RH  033%=      5-min Rain = 0
KST3 171914Z 18007KT 15/M01 A3014 RMK A01 T01471013  RH  033%=      5-min Rain = 0
KST3 171915Z 19008KT 15/M01 A3014 RMK A01 T01471012  RH  033%=      5-min Rain = 0
KST3 171916Z 20008KT 15/M01 A3014 RMK A01 T01481014  RH  033%=      5-min Rain = 0
KST3 171917Z 20009KT 15/M01 A3014 RMK A01 T01471014  RH  033%=      5-min Rain = 0
KST3 171918Z 17009KT 15/M01 A3013 RMK A01 T01461013  RH  034%=      5-min Rain = 0
KST3 171919Z 15007KT 15/M01 A3013 RMK A01 T01461012  RH  034%=      5-min Rain = 0
KST3 171920Z 15008KT 15/M01 A3013 RMK A01 T01461011  RH  034%=      5-min Rain = 0
KST3 171921Z 16009KT 15/M01 A3013 RMK A01 T01471011  RH  034%=      5-min Rain = 0
KST3 171922Z 17009KT 15/M01 A3013 RMK A01 T01461012  RH  034%=      5-min Rain = 0
KST3 171923Z 17009KT 15/M01 A3013 RMK A01 T01461012  RH  034%=      5-min Rain = 0
KST3 171924Z 15008KT 15/M01 A3013 RMK A01 T01451012  RH  034%=      5-min Rain = 0
KST3 171925Z 16007KT 15/M01 A3013 RMK A01 T01451013  RH  034%=      5-min Rain = 0
KST3 171926Z 15009KT 14/M01 A3012 RMK A01 T01441013  RH  034%=      5-min Rain = 0
KST3 171927Z 15006G11KT 14/M01 A3012 RMK A01 T01441014  RH  034%=      5-min Rain = 0
KST3 171928Z 16005KT 14/M01 A3012 RMK A01 T01441012  RH  034%=      5-min Rain = 0
KST3 171929Z 16007KT 15/M01 A3012 RMK A01 T01491008  RH  034%=      5-min Rain = 0
KST3 171930Z 17008KT 15/M01 A3012 RMK A01 T01511009  RH  033%=      5-min Rain = 0
KST3 171931Z 17007KT 15/M01 A3012 RMK A01 T01491011  RH  033%=      5-min Rain = 0
KST3 171932Z 17008KT 15/M01 A3012 RMK A01 T01461011  RH  034%=      5-min Rain = 0
KST3 171933Z 17007KT 15/M01 A3012 RMK A01 T01461010  RH  034%=      5-min Rain = 0
KST3 171934Z 16007KT 15/M01 A3011 RMK A01 T01461011  RH  034%=      5-min Rain = 0
KST3 171935Z 15008KT 15/M01 A3011 RMK A01 T01461011  RH  034%=      5-min Rain = 0
KST3 171936Z 17007KT 15/M01 A3011 RMK A01 T01471012  RH  034%=      5-min Rain = 0
KST3 171937Z 18006KT 15/M01 A3011 RMK A01 T01471011  RH  034%=      5-min Rain = 0
KST3 171938Z 17006KT 15/M01 A3011 RMK A01 T01501009  RH  034%=      5-min Rain = 0
KST3 171939Z 18006KT 15/M01 A3011 RMK A01 T01521011  RH  033%=      5-min Rain = 0
KST3 171940Z 18008KT 15/M01 A3011 RMK A01 T01531009  RH  033%=      5-min Rain = 0
KST3 171941Z 19007KT 15/M01 A3011 RMK A01 T01541010  RH  033%=      5-min Rain = 0
KST3 171942Z 20006KT 15/M01 A3011 RMK A01 T01521012  RH  033%=      5-min Rain = 0
KST3 171943Z 19006KT 15/M01 A3011 RMK A01 T01491012  RH  033%=      5-min Rain = 0
KST3 171944Z 19005KT 15/M01 A3011 RMK A01 T01501012  RH  033%=      5-min Rain = 0
KST3 171945Z 20007KT 15/M01 A3011 RMK A01 T01511011  RH  033%=      5-min Rain = 0
KST3 171946Z 21006KT 15/M01 A3011 RMK A01 T01521013  RH  032%=      5-min Rain = 0
KST3 171947Z 19007KT 15/M01 A3011 RMK A01 T01531012  RH  032%=      5-min Rain = 0
KST3 171948Z 18008KT 15/M01 A3011 RMK A01 T01521012  RH  032%=      5-min Rain = 0
KST3 171949Z 16008KT 15/M01 A301 RMK A01 T01531009  RH  033%=      5-min Rain = 0
KST3 171950Z 16007KT 15/M01 A301 RMK A01 T01541009  RH  033%=      5-min Rain = 0
KST3 171951Z 17008KT 15/M01 A301 RMK A01 T01541010  RH  032%=      5-min Rain = 0
KST3 171952Z 18006KT 15/M01 A301 RMK A01 T01521012  RH  032%=      5-min Rain = 0
KST3 171953Z 17008KT 15/M01 A301 RMK A01 T01511010  RH  033%=      5-min Rain = 0
KST3 171954Z 17009KT 16/M01 A301 RMK A01 T01551006  RH  033%=      5-min Rain = 0
KST3 171955Z 18008KT 16/M01 A301 RMK A01 T01571006  RH  033%=      5-min Rain = 0
KST3 171956Z 19008KT 16/M01 A301 RMK A01 T01581008  RH  032%=      5-min Rain = 0
KST3 171957Z 18007KT 16/M01 A301 RMK A01 T01571010  RH  032%=      5-min Rain = 0
KST3 171958Z 18006KT 16/M01 A301 RMK A01 T01551011  RH  032%=      5-min Rain = 0
KST3 171959Z 16009KT 16/M01 A301 RMK A01 T01561010  RH  032%=      5-min Rain = 0
KST3 172000Z 17010KT 16/M01 A3009 RMK A01 T01561010  RH  032%=      5-min Rain = 0
KST3 172001Z 19010KT 16/M01 A3009 RMK A01 T01571007  RH  033%=      5-min Rain = 0
KST3 172002Z 19007KT 16/M01 A3009 RMK A01 T01601007  RH  032%=      5-min Rain = 0
KST3 172003Z 19008G13KT 16/M01 A3009 RMK A01 T01611008  RH  032%=      5-min Rain = 0
KST3 172004Z 19009KT 16/M01 A3009 RMK A01 T01621009  RH  031%=      5-min Rain = 0
KST3 172005Z 20008KT 16/M01 A3009 RMK A01 T01611012  RH  031%=      5-min Rain = 0
KST3 172006Z 21008KT 16/M01 A3009 RMK A01 T01601011  RH  031%=      5-min Rain = 0
KST3 172007Z 20009KT 16/M01 A3009 RMK A01 T01611009  RH  031%=      5-min Rain = 0
KST3 172008Z 20009KT 16/M01 A3009 RMK A01 T01641009  RH  031%=      5-min Rain = 0
KST3 172009Z 19007KT 17/M01 A3008 RMK A01 T01661009  RH  030%=      5-min Rain = 0
KST3 172010Z 18006KT 17/M01 A3008 RMK A01 T01671009  RH  030%=      5-min Rain = 0
KST3 172011Z 17008KT 17/M01 A3008 RMK A01 T01681010  RH  030%=      5-min Rain = 0
KST3 172012Z 17005KT 17/M01 A3008 RMK A01 T01651012  RH  030%=      5-min Rain = 0
KST3 172013Z 18005KT 16/M01 A3008 RMK A01 T01641011  RH  030%=      5-min Rain = 0
KST3 172014Z 18007KT 16/M01 A3008 RMK A01 T01641011  RH  030%=      5-min Rain = 0
KST3 172015Z 19009KT 17/M01 A3008 RMK A01 T01681012  RH  029%=      5-min Rain = 0
KST3 172016Z 19006KT 17/M02 A3008 RMK A01 T01681017  RH  028%=      5-min Rain = 0
KST3 172017Z 19006KT 17/M02 A3008 RMK A01 T01681017  RH  028%=      5-min Rain = 0
KST3 172018Z 20007KT 17/M02 A3008 RMK A01 T01681016  RH  028%=      5-min Rain = 0
KST3 172019Z 16006KT 17/M01 A3008 RMK A01 T01691014  RH  029%=      5-min Rain = 0
KST3 172020Z 15007KT 17/M01 A3008 RMK A01 T01681014  RH  029%=      5-min Rain = 0
KST3 172021Z 17008KT 17/M01 A3008 RMK A01 T01661012  RH  030%=      5-min Rain = 0
KST3 172022Z 18008KT 17/M01 A3008 RMK A01 T01661013  RH  029%=      5-min Rain = 0
KST3 172023Z 17008KT 17/M01 A3007 RMK A01 T01671013  RH  029%=      5-min Rain = 0
KST3 172024Z 16008KT 17/M01 A3007 RMK A01 T01681011  RH  029%=      5-min Rain = 0
KST3 172025Z 16010KT 17/M01 A3007 RMK A01 T01711011  RH  029%=      5-min Rain = 0
KST3 172026Z 15013KT 17/M02 A3007 RMK A01 T01711015  RH  028%=      5-min Rain = 0
KST3 172027Z 16011KT 17/M02 A3007 RMK A01 T01681017  RH  028%=      5-min Rain = 0
KST3 172028Z 17009KT 17/M02 A3007 RMK A01 T01671015  RH  029%=      5-min Rain = 0
KST3 172029Z 17008KT 17/M02 A3007 RMK A01 T01671017  RH  028%=      5-min Rain = 0
KST3 172030Z 18005KT 17/M02 A3007 RMK A01 T01651017  RH  029%=      5-min Rain = 0
KST3 172031Z 17005KT 16/M02 A3007 RMK A01 T01641016  RH  029%=      5-min Rain = 0
KST3 172032Z 18004KT 17/M02 A3007 RMK A01 T01651017  RH  029%=      5-min Rain = 0
KST3 172033Z 18006KT 17/M02 A3007 RMK A01 T01661016  RH  029%=      5-min Rain = 0
KST3 172034Z 17008KT 17/M02 A3007 RMK A01 T01671017  RH  028%=      5-min Rain = 0
KST3 172035Z 17010KT 17/M02 A3006 RMK A01 T01691017  RH  028%=      5-min Rain = 0
KST3 172036Z 17010KT 17/M02 A3006 RMK A01 T01711021  RH  027%=      5-min Rain = 0
KST3 172037Z 17011KT 17/M02 A3006 RMK A01 T01721022  RH  026%=      5-min Rain = 0
KST3 172038Z 17010KT 17/M02 A3006 RMK A01 T01711022  RH  027%=      5-min Rain = 0
KST3 172039Z 17009KT 17/M02 A3006 RMK A01 T01731021  RH  027%=      5-min Rain = 0
KST3 172040Z 18011KT 17/M02 A3006 RMK A01 T01711024  RH  026%=      5-min Rain = 0
KST3 172041Z 17011KT 17/M02 A3006 RMK A01 T01711023  RH  027%=      5-min Rain = 0
KST3 172042Z 17013KT 17/M02 A3006 RMK A01 T01711021  RH  027%=      5-min Rain = 0
KST3 172043Z 20011KT 17/M02 A3006 RMK A01 T01721020  RH  027%=      5-min Rain = 0
KST3 172044Z 18009KT 17/M02 A3006 RMK A01 T01711020  RH  027%=      5-min Rain = 0
KST3 172045Z 18009KT 17/M02 A3006 RMK A01 T01691022  RH  027%=      5-min Rain = 0
KST3 172046Z 19009KT 17/M02 A3006 RMK A01 T01681021  RH  027%=      5-min Rain = 0
KST3 172047Z 19008KT 17/M02 A3006 RMK A01 T01691019  RH  028%=      5-min Rain = 0
KST3 172048Z 17011KT 17/M02 A3006 RMK A01 T01711018  RH  028%=      5-min Rain = 0
KST3 172049Z 18011KT 17/M02 A3006 RMK A01 T01731019  RH  027%=      5-min Rain = 0
KST3 172050Z 18014KT 18/M02 A3006 RMK A01 T01751020  RH  026%=      5-min Rain = 0
KST3 172051Z 18013KT 18/M02 A3006 RMK A01 T01751023  RH  026%=      5-min Rain = 0
KST3 172052Z 19010KT 17/M02 A3006 RMK A01 T01741024  RH  026%=      5-min Rain = 0
KST3 172053Z 19009KT 17/M03 A3006 RMK A01 T01731025  RH  026%=      5-min Rain = 0
KST3 172054Z 19012KT 17/M02 A3006 RMK A01 T01731024  RH  026%=      5-min Rain = 0
KST3 172055Z 20015KT 17/M03 A3005 RMK A01 T01731025  RH  026%=      5-min Rain = 0
KST3 172056Z 20016KT 17/M03 A3005 RMK A01 T01731026  RH  026%=      5-min Rain = 0
KST3 172057Z 20016KT 17/M03 A3005 RMK A01 T01721025  RH  026%=      5-min Rain = 0
KST3 172058Z 20013KT 17/M03 A3005 RMK A01 T01711025  RH  026%=      5-min Rain = 0
KST3 172059Z 20011KT 17/M02 A3005 RMK A01 T01721022  RH  027%=      5-min Rain = 0
KST3 172100Z 20014KT 17/M02 A3005 RMK A01 T01741023  RH  026%=      5-min Rain = 0
KST3 172101Z 20014KT 17/M02 A3005 RMK A01 T01741024  RH  026%=      5-min Rain = 0
KST3 172102Z 19014KT 17/M03 A3005 RMK A01 T01731025  RH  026%=      5-min Rain = 0
KST3 172103Z 19010KT 17/M03 A3005 RMK A01 T01721026  RH  026%=      5-min Rain = 0
KST3 172104Z 19011KT 17/M03 A3005 RMK A01 T01721025  RH  026%=      5-min Rain = 0
KST3 172105Z 19013KT 17/M03 A3005 RMK A01 T01721025  RH  026%=      5-min Rain = 0
KST3 172106Z 19014KT 17/M03 A3005 RMK A01 T01721025  RH  026%=      5-min Rain = 0
KST3 172107Z 18015KT 17/M03 A3005 RMK A01 T01731025  RH  026%=      5-min Rain = 0
KST3 172108Z 18013KT 17/M03 A3005 RMK A01 T01721025  RH  026%=      5-min Rain = 0
KST3 172109Z 17013KT 17/M02 A3005 RMK A01 T01741023  RH  026%=      5-min Rain = 0
KST3 172110Z 18010KT 17/M02 A3005 RMK A01 T01741024  RH  026%=      5-min Rain = 0
KST3 172111Z 18009KT 17/M02 A3005 RMK A01 T01741022  RH  026%=      5-min Rain = 0
KST3 172112Z 18011KT 18/M02 A3005 RMK A01 T01761023  RH  026%=      5-min Rain = 0
KST3 172113Z 19012KT 17/M03 A3005 RMK A01 T01741025  RH  025%=      5-min Rain = 0
KST3 172114Z 19013G18KT 17/M02 A3005 RMK A01 T01741024  RH  026%=      5-min Rain = 0
KST3 172115Z 19014KT 17/M03 A3005 RMK A01 T01741025  RH  026%=      5-min Rain = 0
KST3 172116Z 19012KT 17/M03 A3005 RMK A01 T01731025  RH  026%=      5-min Rain = 0
KST3 172117Z 20010KT 17/M03 A3005 RMK A01 T01731027  RH  025%=      5-min Rain = 0
KST3 172118Z 20011KT 17/M03 A3005 RMK A01 T01721026  RH  026%=      5-min Rain = 0
KST3 172119Z 20013KT 17/M03 A3005 RMK A01 T01731026  RH  026%=      5-min Rain = 0
KST3 172120Z 21013KT 17/M03 A3005 RMK A01 T01741025  RH  026%=      5-min Rain = 0
KST3 172121Z 21013KT 18/M02 A3005 RMK A01 T01761024  RH  026%=      5-min Rain = 0
KST3 172122Z 20014KT 18/M02 A3005 RMK A01 T01771024  RH  025%=      5-min Rain = 0
KST3 172123Z 21012KT 18/M03 A3005 RMK A01 T01761026  RH  025%=      5-min Rain = 0
KST3 172124Z 20011KT 18/M03 A3005 RMK A01 T01751026  RH  025%=      5-min Rain = 0
KST3 172125Z 21014KT 18/M02 A3005 RMK A01 T01761023  RH  026%=      5-min Rain = 0
KST3 172126Z 21012KT 18/M02 A3005 RMK A01 T01771023  RH  025%=      5-min Rain = 0
KST3 172127Z 20010KT 18/M02 A3005 RMK A01 T01761024  RH  026%=      5-min Rain = 0
KST3 172128Z 21009KT 18/M02 A3005 RMK A01 T01761023  RH  026%=      5-min Rain = 0
KST3 172129Z 19008KT 18/M02 A3005 RMK A01 T01771021  RH  026%=      5-min Rain = 0
KST3 172130Z 18010KT 18/M02 A3005 RMK A01 T01781021  RH  026%=      5-min Rain = 0
KST3 172131Z 18011KT 18/M02 A3005 RMK A01 T01781022  RH  025%=      5-min Rain = 0
KST3 172132Z 18012KT 18/M02 A3005 RMK A01 T01771024  RH  025%=      5-min Rain = 0
KST3 172133Z 20013KT 18/M02 A3005 RMK A01 T01761023  RH  026%=      5-min Rain = 0
KST3 172134Z 20012KT 18/M02 A3005 RMK A01 T01761022  RH  026%=      5-min Rain = 0
KST3 172135Z 20013KT 18/M02 A3005 RMK A01 T01771021  RH  026%=      5-min Rain = 0
KST3 172136Z 20014KT 18/M02 A3005 RMK A01 T01781021  RH  026%=      5-min Rain = 0
KST3 172137Z 21011KT 18/M02 A3005 RMK A01 T01771022  RH  026%=      5-min Rain = 0
KST3 172138Z 20016KT 18/M02 A3005 RMK A01 T01781021  RH  026%=      5-min Rain = 0
KST3 172139Z 20014KT 18/M02 A3005 RMK A01 T01791022  RH  025%=      5-min Rain = 0
KST3 172140Z 21015KT 18/M02 A3005 RMK A01 T01771023  RH  025%=      5-min Rain = 0
KST3 172141Z 20014KT 18/M02 A3005 RMK A01 T01771023  RH  025%=      5-min Rain = 0
KST3 172142Z 21012KT 18/M02 A3005 RMK A01 T01771023  RH  025%=      5-min Rain = 0
KST3 172143Z 19012KT 18/M02 A3005 RMK A01 T01781023  RH  025%=      5-min Rain = 0
KST3 172144Z 19013KT 18/M03 A3005 RMK A01 T01791025  RH  025%=      5-min Rain = 0
KST3 172145Z 18012KT 18/M03 A3005 RMK A01 T01781025  RH  025%=      5-min Rain = 0
KST3 172146Z 18013KT 18/M03 A3005 RMK A01 T01781026  RH  025%=      5-min Rain = 0
KST3 172147Z 18013KT 18/M03 A3005 RMK A01 T01771027  RH  025%=      5-min Rain = 0
KST3 172148Z 20010KT 18/M03 A3005 RMK A01 T01771026  RH  025%=      5-min Rain = 0
KST3 172149Z 19011KT 18/M03 A3005 RMK A01 T01781025  RH  025%=      5-min Rain = 0
KST3 172150Z 19013KT 18/M02 A3005 RMK A01 T01801024  RH  025%=      5-min Rain = 0
KST3 172151Z 20015KT 18/M03 A3004 RMK A01 T01811025  RH  025%=      5-min Rain = 0
KST3 172152Z 21015KT 18/M03 A3004 RMK A01 T01791026  RH  024%=      5-min Rain = 0
KST3 172153Z 21013KT 18/M03 A3004 RMK A01 T01781026  RH  025%=      5-min Rain = 0
KST3 172154Z 21012KT 18/M03 A3004 RMK A01 T01781026  RH  025%=      5-min Rain = 0
KST3 172155Z 21011KT 18/M03 A3004 RMK A01 T01781026  RH  025%=      5-min Rain = 0
KST3 172156Z 20012KT 18/M03 A3004 RMK A01 T01781026  RH  025%=      5-min Rain = 0
KST3 172157Z 19011KT 18/M03 A3004 RMK A01 T01781026  RH  025%=      5-min Rain = 0
KST3 172158Z 18011KT 18/M03 A3004 RMK A01 T01791026  RH  025%=      5-min Rain = 0
KST3 172159Z 19010KT 18/M03 A3004 RMK A01 T01791027  RH  024%=      5-min Rain = 0
KST3 172200Z 18010KT 18/M03 A3004 RMK A01 T01791025  RH  025%=      5-min Rain = 0
KST3 172201Z 19011KT 18/M03 A3004 RMK A01 T01801026  RH  024%=      5-min Rain = 0
KST3 172202Z 19014KT 18/M03 A3004 RMK A01 T01791027  RH  024%=      5-min Rain = 0
KST3 172203Z 19015KT 18/M03 A3004 RMK A01 T01791027  RH  025%=      5-min Rain = 0
KST3 172204Z 20016KT 18/M03 A3004 RMK A01 T01791027  RH  025%=      5-min Rain = 0
KST3 172205Z 20013KT 18/M03 A3004 RMK A01 T01781028  RH  024%=      5-min Rain = 0
KST3 172206Z 21011KT 18/M03 A3004 RMK A01 T01781027  RH  025%=      5-min Rain = 0
KST3 172207Z 21014G20KT 18/M03 A3004 RMK A01 T01781027  RH  025%=      5-min Rain = 0
KST3 172208Z 20015KT 18/M03 A3004 RMK A01 T01781028  RH  024%=      5-min Rain = 0
KST3 172209Z 20014KT 18/M03 A3004 RMK A01 T01781028  RH  024%=      5-min Rain = 0
KST3 172210Z 20015KT 18/M03 A3004 RMK A01 T01781029  RH  024%=      5-min Rain = 0
KST3 172211Z 20014KT 18/M03 A3004 RMK A01 T01781029  RH  024%=      5-min Rain = 0
KST3 172212Z 21015KT 18/M03 A3004 RMK A01 T01781030  RH  024%=      5-min Rain = 0
KST3 172213Z 20015KT 18/M03 A3004 RMK A01 T01781030  RH  024%=      5-min Rain = 0
KST3 172214Z 21014KT 18/M03 A3004 RMK A01 T01781031  RH  024%=      5-min Rain = 0
KST3 172215Z 21016KT 18/M03 A3004 RMK A01 T01791029  RH  024%=      5-min Rain = 0
KST3 172216Z 21013KT 18/M03 A3004 RMK A01 T01791029  RH  024%=      5-min Rain = 0
KST3 172217Z 20012KT 18/M03 A3004 RMK A01 T01791030  RH  024%=      5-min Rain = 0
KST3 172218Z 20009KT 18/M03 A3004 RMK A01 T01781030  RH  024%=      5-min Rain = 0
KST3 172219Z 20008KT 18/M03 A3004 RMK A01 T01801027  RH  024%=      5-min Rain = 0
KST3 172220Z 20012KT 18/M03 A3004 RMK A01 T01821027  RH  024%=      5-min Rain = 0
KST3 172221Z 19011KT 18/M03 A3003 RMK A01 T01811030  RH  024%=      5-min Rain = 0
KST3 172222Z 18015KT 18/M03 A3003 RMK A01 T01801031  RH  024%=      5-min Rain = 0
KST3 172223Z 18016KT 18/M03 A3003 RMK A01 T01791034  RH  023%=      5-min Rain = 0
KST3 172224Z 18015KT 18/M03 A3003 RMK A01 T01771034  RH  023%=      5-min Rain = 0
KST3 172225Z 19014KT 18/M03 A3003 RMK A01 T01771034  RH  024%=      5-min Rain = 0
KST3 172226Z 19014KT 18/M03 A3003 RMK A01 T01771033  RH  024%=      5-min Rain = 0
KST3 172227Z 19013KT 18/M03 A3003 RMK A01 T01771033  RH  024%=      5-min Rain = 0
KST3 172228Z 20011KT 18/M03 A3003 RMK A01 T01771032  RH  024%=      5-min Rain = 0
KST3 172229Z 21012KT 18/M03 A3003 RMK A01 T01781031  RH  024%=      5-min Rain = 0
KST3 172230Z 20012KT 18/M03 A3003 RMK A01 T01781032  RH  024%=      5-min Rain = 0
KST3 172231Z 20014KT 18/M03 A3003 RMK A01 T01781031  RH  024%=      5-min Rain = 0
KST3 172232Z 20015KT 18/M03 A3003 RMK A01 T01781033  RH  024%=      5-min Rain = 0
KST3 172233Z 20012KT 18/M03 A3003 RMK A01 T01771033  RH  024%=      5-min Rain = 0
KST3 172234Z 20015KT 18/M03 A3002 RMK A01 T01761032  RH  024%=      5-min Rain = 0
KST3 172235Z 19013KT 18/M03 A3002 RMK A01 T01761033  RH  024%=      5-min Rain = 0
KST3 172236Z 20011KT 18/M03 A3002 RMK A01 T01761032  RH  024%=      5-min Rain = 0
KST3 172237Z 20010KT 18/M03 A3002 RMK A01 T01771030  RH  024%=      5-min Rain = 0
KST3 172238Z 19010KT 18/M03 A3002 RMK A01 T01781029  RH  024%=      5-min Rain = 0
KST3 172239Z 19014KT 18/M03 A3002 RMK A01 T01781031  RH  024%=      5-min Rain = 0
KST3 172240Z 19014G19KT 18/M03 A3002 RMK A01 T01771032  RH  024%=      5-min Rain = 0
KST3 172241Z 19016KT 18/M03 A3002 RMK A01 T01761033  RH  024%=      5-min Rain = 0
KST3 172242Z 19016KT 18/M03 A3002 RMK A01 T01751032  RH  024%=      5-min Rain = 0
KST3 172243Z 20013KT 18/M03 A3002 RMK A01 T01751032  RH  024%=      5-min Rain = 0
KST3 172244Z 21012KT 18/M03 A3002 RMK A01 T01751031  RH  024%=      5-min Rain = 0
KST3 172245Z 20012KT 18/M03 A3002 RMK A01 T01751031  RH  024%=      5-min Rain = 0
KST3 172246Z 20010KT 18/M03 A3002 RMK A01 T01761030  RH  024%=      5-min Rain = 0
KST3 172247Z 19013KT 18/M03 A3002 RMK A01 T01761030  RH  024%=      5-min Rain = 0
KST3 172248Z 19013KT 18/M03 A3002 RMK A01 T01761031  RH  024%=      5-min Rain = 0
KST3 172249Z 19013KT 18/M03 A3002 RMK A01 T01761031  RH  024%=      5-min Rain = 0
KST3 172250Z 20012KT 18/M03 A3002 RMK A01 T01761030  RH  024%=      5-min Rain = 0
KST3 172251Z 19012KT 18/M03 A3002 RMK A01 T01761030  RH  024%=      5-min Rain = 0
KST3 172252Z 19013KT 18/M03 A3002 RMK A01 T01761031  RH  024%=      5-min Rain = 0
KST3 172253Z 20012KT 18/M03 A3001 RMK A01 T01751032  RH  024%=      5-min Rain = 0
KST3 172254Z 20012KT 17/M03 A3001 RMK A01 T01741031  RH  024%=      5-min Rain = 0
KST3 172255Z 20014KT 18/M03 A3001 RMK A01 T01751031  RH  024%=      5-min Rain = 0
KST3 172256Z 20011KT 18/M03 A3001 RMK A01 T01751031  RH  024%=      5-min Rain = 0
KST3 172257Z 19009KT 17/M03 A3001 RMK A01 T01741031  RH  024%=      5-min Rain = 0
KST3 172258Z 19013KT 18/M03 A3001 RMK A01 T01751030  RH  025%=      5-min Rain = 0
KST3 172259Z 20014KT 18/M03 A3001 RMK A01 T01751030  RH  025%=      5-min Rain = 0
KST3 172300Z 19012KT 18/M03 A3001 RMK A01 T01751031  RH  025%=      5-min Rain = 0
KST3 172301Z 19012KT 17/M03 A3001 RMK A01 T01741031  RH  024%=      5-min Rain = 0
KST3 172302Z 19013KT 17/M03 A3001 RMK A01 T01741032  RH  024%=      5-min Rain = 0
KST3 172303Z 19014KT 17/M03 A3001 RMK A01 T01741032  RH  024%=      5-min Rain = 0
KST3 172304Z 20013KT 17/M03 A3001 RMK A01 T01731032  RH  024%=      5-min Rain = 0
KST3 172305Z 20012KT 17/M03 A3001 RMK A01 T01731032  RH  024%=      5-min Rain = 0
KST3 172306Z 19011G16KT 17/M03 A3001 RMK A01 T01731032  RH  024%=      5-min Rain = 0
KST3 172307Z 19015KT 17/M03 A3001 RMK A01 T01731032  RH  025%=      5-min Rain = 0
KST3 172308Z 19012KT 17/M03 A3001 RMK A01 T01731032  RH  024%=      5-min Rain = 0
KST3 172309Z 19012KT 17/M03 A3001 RMK A01 T01721032  RH  025%=      5-min Rain = 0
KST3 172310Z 19011KT 17/M03 A3001 RMK A01 T01721031  RH  025%=      5-min Rain = 0
KST3 172311Z 19010KT 17/M03 A3001 RMK A01 T01721031  RH  025%=      5-min Rain = 0
KST3 172312Z 19012KT 17/M03 A3001 RMK A01 T01711032  RH  025%=      5-min Rain = 0
KST3 172313Z 19011KT 17/M03 A3001 RMK A01 T01711032  RH  025%=      5-min Rain = 0
KST3 172314Z 19013KT 17/M03 A3001 RMK A01 T01711032  RH  025%=      5-min Rain = 0
KST3 172315Z 19012KT 17/M03 A3001 RMK A01 T01711032  RH  025%=      5-min Rain = 0
KST3 172316Z 19011KT 17/M03 A3001 RMK A01 T01711033  RH  025%=      5-min Rain = 0
KST3 172317Z 19010KT 17/M03 A3001 RMK A01 T01701032  RH  025%=      5-min Rain = 0
KST3 172318Z 19012KT 17/M03 A3001 RMK A01 T01701032  RH  025%=      5-min Rain = 0
KST3 172319Z 19012KT 17/M03 A3001 RMK A01 T01691033  RH  025%=      5-min Rain = 0
KST3 172320Z 19012KT 17/M03 A3001 RMK A01 T01701033  RH  025%=      5-min Rain = 0
KST3 172321Z 20011KT 17/M03 A3001 RMK A01 T01691034  RH  025%=      5-min Rain = 0
KST3 172322Z 20010KT 17/M03 A3001 RMK A01 T01701033  RH  025%=      5-min Rain = 0
KST3 172323Z 19010KT 17/M03 A3001 RMK A01 T01691033  RH  025%=      5-min Rain = 0
KST3 172324Z 19010KT 17/M03 A3001 RMK A01 T01681033  RH  025%=      5-min Rain = 0
KST3 172325Z 19010KT 17/M03 A3001 RMK A01 T01681033  RH  025%=      5-min Rain = 0
KST3 172326Z 19011KT 17/M03 A3001 RMK A01 T01671033  RH  025%=      5-min Rain = 0
KST3 172327Z 19012KT 17/M03 A3001 RMK A01 T01661033  RH  025%=      5-min Rain = 0
KST3 172328Z 19009KT 17/M03 A3001 RMK A01 T01661033  RH  025%=      5-min Rain = 0
KST3 172329Z 19010KT 17/M03 A3001 RMK A01 T01651032  RH  026%=      5-min Rain = 0
KST3 172330Z 18010KT 17/M03 A30 RMK A01 T01651032  RH  026%=      5-min Rain = 0
KST3 172331Z 18010KT 17/M03 A30 RMK A01 T01651032  RH  026%=      5-min Rain = 0
KST3 172332Z 18010KT 16/M03 A30 RMK A01 T01641032  RH  026%=      5-min Rain = 0
KST3 172333Z 19010KT 16/M03 A30 RMK A01 T01641032  RH  026%=      5-min Rain = 0
KST3 172334Z 18010KT 16/M03 A30 RMK A01 T01641031  RH  026%=      5-min Rain = 0
KST3 172335Z 18009KT 16/M03 A30 RMK A01 T01631032  RH  026%=      5-min Rain = 0
KST3 172336Z 19009KT 16/M03 A30 RMK A01 T01621032  RH  026%=      5-min Rain = 0
KST3 172337Z 19009KT 16/M03 A30 RMK A01 T01611031  RH  026%=      5-min Rain = 0
KST3 172338Z 18010KT 16/M03 A30 RMK A01 T01611032  RH  027%=      5-min Rain = 0
KST3 172339Z 18010KT 16/M03 A30 RMK A01 T01601032  RH  027%=      5-min Rain = 0
KST3 172340Z 18009KT 16/M03 A30 RMK A01 T01591032  RH  027%=      5-min Rain = 0
KST3 172341Z 18008KT 16/M03 A30 RMK A01 T01591032  RH  027%=      5-min Rain = 0
KST3 172342Z 18010KT 16/M03 A30 RMK A01 T01581032  RH  027%=      5-min Rain = 0
KST3 172343Z 18009KT 16/M03 A30 RMK A01 T01571032  RH  027%=      5-min Rain = 0
KST3 172344Z 18009KT 16/M03 A30 RMK A01 T01561032  RH  027%=      5-min Rain = 0
KST3 172345Z 18009KT 16/M03 A30 RMK A01 T01551032  RH  028%=      5-min Rain = 0
KST3 172346Z 18009KT 15/M03 A30 RMK A01 T01541032  RH  028%=      5-min Rain = 0
KST3 172347Z 18010KT 15/M03 A30 RMK A01 T01531032  RH  028%=      5-min Rain = 0
KST3 172348Z 18011KT 15/M03 A30 RMK A01 T01531031  RH  028%=      5-min Rain = 0
KST3 172349Z 18011KT 15/M03 A30 RMK A01 T01521031  RH  028%=      5-min Rain = 0
KST3 172350Z 18011KT 15/M03 A30 RMK A01 T01521031  RH  028%=      5-min Rain = 0
KST3 172351Z 18010KT 15/M03 A30 RMK A01 T01521030  RH  028%=      5-min Rain = 0
KST3 172352Z 18011KT 15/M03 A30 RMK A01 T01511030  RH  029%=      5-min Rain = 0
KST3 172353Z 18011KT 15/M03 A30 RMK A01 T01501030  RH  029%=      5-min Rain = 0
KST3 172354Z 18010KT 15/M03 A30 RMK A01 T01491030  RH  029%=      5-min Rain = 0
KST3 172355Z 18010KT 15/M03 A30 RMK A01 T01481030  RH  029%=      5-min Rain = 0
KST3 172356Z 18010KT 15/M03 A30 RMK A01 T01481030  RH  029%=      5-min Rain = 0
KST3 172357Z 18010KT 15/M03 A30 RMK A01 T01481030  RH  029%=      5-min Rain = 0
KST3 172358Z 18011KT 15/M03 A30 RMK A01 T01481029  RH  029%=      5-min Rain = 0
KST3 172359Z 18011KT 15/M03 A30 RMK A01 T01471030  RH  029%=      5-min Rain = 0
KST3 180000Z 18011KT 15/M03 A30 RMK A01 T01471030  RH  029%=      5-min Rain = 0
KST3 180001Z 18011KT 15/M03 A30 RMK A01 T01471029  RH  029%=      5-min Rain = 0
KST3 180002Z 18010KT 15/M03 A30 RMK A01 T01461029  RH  030%=      5-min Rain = 0
KST3 180003Z 18011KT 15/M03 A30 RMK A01 T01451029  RH  030%=      5-min Rain = 0
KST3 180004Z 18011KT 14/M03 A30 RMK A01 T01441029  RH  030%=      5-min Rain = 0
KST3 180005Z 18012KT 14/M03 A30 RMK A01 T01441029  RH  030%=      5-min Rain = 0
KST3 180006Z 18012KT 14/M03 A30 RMK A01 T01431029  RH  030%=      5-min Rain = 0
KST3 180007Z 17011KT 14/M03 A30 RMK A01 T01431029  RH  030%=      5-min Rain = 0
KST3 180008Z 18011KT 14/M03 A30 RMK A01 T01421029  RH  030%=      5-min Rain = 0
KST3 180009Z 18011KT 14/M03 A30 RMK A01 T01421029  RH  030%=      5-min Rain = 0
KST3 180010Z 18011KT 14/M03 A30 RMK A01 T01421029  RH  031%=      5-min Rain = 0
KST3 180011Z 17010KT 14/M03 A30 RMK A01 T01411029  RH  031%=      5-min Rain = 0
KST3 180012Z 18010KT 14/M03 A30 RMK A01 T01401029  RH  031%=      5-min Rain = 0
KST3 180013Z 18010KT 14/M03 A30 RMK A01 T01391029  RH  031%=      5-min Rain = 0
KST3 180014Z 17010KT 14/M03 A30 RMK A01 T01391029  RH  031%=      5-min Rain = 0
KST3 180015Z 17012KT 14/M03 A30 RMK A01 T01391029  RH  031%=      5-min Rain = 0
KST3 180016Z 17010KT 14/M03 A30 RMK A01 T01391028  RH  031%=      5-min Rain = 0
KST3 180017Z 17011KT 14/M03 A30 RMK A01 T01391029  RH  031%=      5-min Rain = 0
KST3 180018Z 18011KT 14/M03 A30 RMK A01 T01381029  RH  031%=      5-min Rain = 0
KST3 180019Z 17011KT 14/M03 A30 RMK A01 T01371028  RH  032%=      5-min Rain = 0
KST3 180020Z 18010KT 14/M03 A30 RMK A01 T01371028  RH  032%=      5-min Rain = 0
KST3 180021Z 17012KT 14/M03 A30 RMK A01 T01371028  RH  032%=      5-min Rain = 0
KST3 180022Z 17011KT 14/M03 A30 RMK A01 T01371028  RH  032%=      5-min Rain = 0
KST3 180023Z 17011KT 14/M03 A30 RMK A01 T01371028  RH  032%=      5-min Rain = 0
KST3 180024Z 18011KT 14/M03 A30 RMK A01 T01371028  RH  032%=      5-min Rain = 0
KST3 180025Z 17011KT 14/M03 A30 RMK A01 T01361028  RH  032%=      5-min Rain = 0
KST3 180026Z 18011KT 13/M03 A30 RMK A01 T01341028  RH  032%=      5-min Rain = 0
KST3 180027Z 18011KT 13/M03 A30 RMK A01 T01341028  RH  033%=      5-min Rain = 0
KST3 180028Z 18011KT 13/M03 A30 RMK A01 T01331027  RH  033%=      5-min Rain = 0
KST3 180029Z 18011KT 13/M03 A30 RMK A01 T01331027  RH  033%=      5-min Rain = 0
KST3 180030Z 18011KT 13/M03 A30 RMK A01 T01331027  RH  033%=      5-min Rain = 0
KST3 180031Z 18011KT 13/M03 A30 RMK A01 T01331027  RH  033%=      5-min Rain = 0
KST3 180032Z 18011KT 13/M03 A30 RMK A01 T01331027  RH  033%=      5-min Rain = 0
KST3 180033Z 18011KT 13/M03 A30 RMK A01 T01321027  RH  033%=      5-min Rain = 0
KST3 180034Z 18011KT 13/M03 A2999 RMK A01 T01321027  RH  033%=      5-min Rain = 0
KST3 180035Z 18010KT 13/M03 A2999 RMK A01 T01311027  RH  033%=      5-min Rain = 0
KST3 180036Z 18011KT 13/M03 A2999 RMK A01 T01301028  RH  033%=      5-min Rain = 0
KST3 180037Z 18011KT 13/M03 A2999 RMK A01 T01301027  RH  033%=      5-min Rain = 0
KST3 180038Z 18011KT 13/M03 A2999 RMK A01 T01301027  RH  033%=      5-min Rain = 0
KST3 180039Z 18011KT 13/M03 A2999 RMK A01 T01291028  RH  034%=      5-min Rain = 0
KST3 180040Z 18011KT 13/M03 A2999 RMK A01 T01281028  RH  034%=      5-min Rain = 0
KST3 180041Z 18011KT 13/M03 A2999 RMK A01 T01271028  RH  034%=      5-min Rain = 0
KST3 180042Z 18010KT 13/M03 A2999 RMK A01 T01271027  RH  034%=      5-min Rain = 0
KST3 180043Z 18011KT 13/M03 A2999 RMK A01 T01261028  RH  034%=      5-min Rain = 0
KST3 180044Z 18010KT 13/M03 A2999 RMK A01 T01261027  RH  034%=      5-min Rain = 0
KST3 180045Z 18011KT 13/M03 A2999 RMK A01 T01261027  RH  034%=      5-min Rain = 0
KST3 180046Z 18011KT 13/M03 A2999 RMK A01 T01261027  RH  034%=      5-min Rain = 0
KST3 180047Z 18010KT 13/M03 A2999 RMK A01 T01261027  RH  034%=      5-min Rain = 0
KST3 180048Z 18010KT 13/M03 A2999 RMK A01 T01261027  RH  034%=      5-min Rain = 0
KST3 180049Z 18011KT 13/M03 A2999 RMK A01 T01261027  RH  034%=      5-min Rain = 0
KST3 180050Z 18011KT 13/M03 A2999 RMK A01 T01261027  RH  034%=      5-min Rain = 0
KST3 180051Z 18011KT 13/M03 A2999 RMK A01 T01271028  RH  034%=      5-min Rain = 0
KST3 180052Z 17011KT 13/M03 A2999 RMK A01 T01271028  RH  034%=      5-min Rain = 0
KST3 180053Z 17011KT 13/M03 A2999 RMK A01 T01271028  RH  034%=      5-min Rain = 0
KST3 180054Z 17012KT 13/M03 A2999 RMK A01 T01261028  RH  034%=      5-min Rain = 0
KST3 180055Z 17012KT 13/M03 A2999 RMK A01 T01271028  RH  034%=      5-min Rain = 0
KST3 180056Z 17011KT 13/M03 A2999 RMK A01 T01271028  RH  034%=      5-min Rain = 0
KST3 180057Z 17011KT 13/M03 A2999 RMK A01 T01271028  RH  034%=      5-min Rain = 0
KST3 180058Z 18010KT 13/M03 A2999 RMK A01 T01261028  RH  034%=      5-min Rain = 0
KST3 180059Z 17010KT 13/M03 A2999 RMK A01 T01251028  RH  034%=      5-min Rain = 0
KST3 180100Z 18011KT 13/M03 A2999 RMK A01 T01251028  RH  034%=      5-min Rain = 0
KST3 180101Z 17010KT 12/M03 A2999 RMK A01 T01241028  RH  035%=      5-min Rain = 0
KST3 180102Z 17010KT 12/M03 A2999 RMK A01 T01221029  RH  035%=      5-min Rain = 0
KST3 180103Z 17011KT 12/M03 A2999 RMK A01 T01221028  RH  035%=      5-min Rain = 0
KST3 180104Z 18012KT 12/M03 A2999 RMK A01 T01231028  RH  035%=      5-min Rain = 0
KST3 180105Z 17011KT 12/M03 A2999 RMK A01 T01241028  RH  035%=      5-min Rain = 0
KST3 180106Z 18011KT 12/M03 A2999 RMK A01 T01241028  RH  034%=      5-min Rain = 0
KST3 180107Z 18012KT 12/M03 A2999 RMK A01 T01231029  RH  035%=      5-min Rain = 0
KST3 180108Z 18012KT 12/M03 A2999 RMK A01 T01231029  RH  035%=      5-min Rain = 0
KST3 180109Z 18011KT 12/M03 A2999 RMK A01 T01241029  RH  034%=      5-min Rain = 0
KST3 180110Z 18012KT 12/M03 A2999 RMK A01 T01241029  RH  034%=      5-min Rain = 0
KST3 180111Z 18013KT 12/M03 A2999 RMK A01 T01231029  RH  034%=      5-min Rain = 0
KST3 180112Z 18013KT 12/M03 A2999 RMK A01 T01241029  RH  034%=      5-min Rain = 0
KST3 180113Z 18011KT 12/M03 A2999 RMK A01 T01241029  RH  034%=      5-min Rain = 0
KST3 180114Z 18013KT 12/M03 A2999 RMK A01 T01241029  RH  034%=      5-min Rain = 0
KST3 180115Z 18014KT 12/M03 A2999 RMK A01 T01241029  RH  034%=      5-min Rain = 0
KST3 180116Z 18014KT 13/M03 A2999 RMK A01 T01251029  RH  034%=      5-min Rain = 0
KST3 180117Z 18014KT 13/M03 A2999 RMK A01 T01261029  RH  034%=      5-min Rain = 0
KST3 180118Z 18012KT 13/M03 A2999 RMK A01 T01271030  RH  033%=      5-min Rain = 0
KST3 180119Z 18013KT 13/M03 A2999 RMK A01 T01271030  RH  033%=      5-min Rain = 0
KST3 180120Z 19011KT 13/M03 A2999 RMK A01 T01271030  RH  033%=      5-min Rain = 0
KST3 180121Z 18011KT 13/M03 A30 RMK A01 T01271030  RH  033%=      5-min Rain = 0
KST3 180122Z 18012KT 13/M03 A30 RMK A01 T01271030  RH  033%=      5-min Rain = 0
KST3 180123Z 18011KT 13/M03 A2999 RMK A01 T01271030  RH  033%=      5-min Rain = 0
KST3 180124Z 18012KT 13/M03 A2999 RMK A01 T01261031  RH  033%=      5-min Rain = 0
KST3 180125Z 18011KT 13/M03 A2999 RMK A01 T01261031  RH  034%=      5-min Rain = 0
KST3 180126Z 18011KT 13/M03 A30 RMK A01 T01251031  RH  034%=      5-min Rain = 0
KST3 180127Z 19012KT 12/M03 A2999 RMK A01 T01241031  RH  034%=      5-min Rain = 0
KST3 180128Z 18010KT 12/M03 A30 RMK A01 T01241030  RH  034%=      5-min Rain = 0
KST3 180129Z 18010KT 12/M03 A30 RMK A01 T01231031  RH  034%=      5-min Rain = 0
KST3 180130Z 18010KT 12/M03 A30 RMK A01 T01211031  RH  034%=      5-min Rain = 0
KST3 180131Z 17010KT 12/M03 A30 RMK A01 T01191031  RH  035%=      5-min Rain = 0
KST3 180132Z 17009KT 12/M03 A30 RMK A01 T01191031  RH  035%=      5-min Rain = 0
KST3 180133Z 17009KT 12/M03 A30 RMK A01 T01191031  RH  035%=      5-min Rain = 0
KST3 180134Z 17008KT 12/M03 A30 RMK A01 T01191031  RH  035%=      5-min Rain = 0
KST3 180135Z 17009KT 12/M03 A30 RMK A01 T01181031  RH  035%=      5-min Rain = 0
KST3 180136Z 17009KT 12/M03 A30 RMK A01 T01181031  RH  035%=      5-min Rain = 0
KST3 180137Z 17010KT 12/M03 A30 RMK A01 T01171031  RH  035%=      5-min Rain = 0
KST3 180138Z 17012KT 12/M03 A30 RMK A01 T01171030  RH  036%=      5-min Rain = 0
KST3 180139Z 17011KT 12/M03 A30 RMK A01 T01181030  RH  035%=      5-min Rain = 0
KST3 180140Z 17012KT 12/M03 A30 RMK A01 T01181030  RH  035%=      5-min Rain = 0
KST3 180141Z 17012KT 12/M03 A30 RMK A01 T01181030  RH  036%=      5-min Rain = 0
KST3 180142Z 17014KT 12/M03 A30 RMK A01 T01181029  RH  036%=      5-min Rain = 0
KST3 180143Z 17014KT 12/M03 A30 RMK A01 T01181028  RH  036%=      5-min Rain = 0
KST3 180144Z 17014KT 12/M03 A30 RMK A01 T01181027  RH  036%=      5-min Rain = 0
KST3 180145Z 17014KT 12/M03 A30 RMK A01 T01181026  RH  036%=      5-min Rain = 0
KST3 180146Z 17014KT 12/M03 A30 RMK A01 T01181025  RH  037%=      5-min Rain = 0
KST3 180147Z 18015KT 12/M02 A30 RMK A01 T01181024  RH  037%=      5-min Rain = 0
KST3 180148Z 18013KT 12/M02 A30 RMK A01 T01181024  RH  037%=      5-min Rain = 0
KST3 180149Z 18016KT 12/M02 A30 RMK A01 T01171023  RH  037%=      5-min Rain = 0
KST3 180150Z 18015KT 12/M02 A30 RMK A01 T01171022  RH  038%=      5-min Rain = 0
KST3 180151Z 17014G19KT 12/M02 A30 RMK A01 T01171022  RH  038%=      5-min Rain = 0
KST3 180152Z 18016KT 12/M02 A30 RMK A01 T01161021  RH  038%=      5-min Rain = 0
KST3 180153Z 18015KT 12/M02 A2999 RMK A01 T01161020  RH  039%=      5-min Rain = 0
KST3 180154Z 17015G21KT 12/M02 A2999 RMK A01 T01171020  RH  039%=      5-min Rain = 0
KST3 180155Z 17017KT 12/M02 A2999 RMK A01 T01161019  RH  039%=      5-min Rain = 0
KST3 180156Z 17016KT 12/M02 A2999 RMK A01 T01161019  RH  039%=      5-min Rain = 0
KST3 180157Z 18015KT 12/M02 A2999 RMK A01 T01151018  RH  039%=      5-min Rain = 0
KST3 180158Z 18016KT 12/M02 A2999 RMK A01 T01151018  RH  040%=      5-min Rain = 0
KST3 180159Z 17015KT 11/M02 A2999 RMK A01 T01141018  RH  040%=      5-min Rain = 0
KST3 180200Z 18018KT 11/M02 A2999 RMK A01 T01141017  RH  040%=      5-min Rain = 0
KST3 180201Z 17017KT 11/M02 A2999 RMK A01 T01141017  RH  040%=      5-min Rain = 0
KST3 180202Z 18015KT 11/M02 A2999 RMK A01 T01141016  RH  040%=      5-min Rain = 0
KST3 180203Z 18017KT 11/M02 A2999 RMK A01 T01131016  RH  041%=      5-min Rain = 0
KST3 180204Z 18016KT 11/M02 A2999 RMK A01 T01131015  RH  041%=      5-min Rain = 0
KST3 180205Z 19014KT 11/M02 A30 RMK A01 T01121015  RH  041%=      5-min Rain = 0
KST3 180206Z 18014KT 11/M02 A30 RMK A01 T01121015  RH  041%=      5-min Rain = 0
KST3 180207Z 19016KT 11/M02 A2999 RMK A01 T01101015  RH  042%=      5-min Rain = 0
KST3 180208Z 18015KT 11/M01 A2999 RMK A01 T01101014  RH  042%=      5-min Rain = 0
KST3 180209Z 18012KT 11/M01 A2999 RMK A01 T01091013  RH  042%=      5-min Rain = 0
KST3 180210Z 18014KT 11/M01 A2999 RMK A01 T01081014  RH  043%=      5-min Rain = 0
KST3 180211Z 18015KT 11/M01 A2999 RMK A01 T01071013  RH  043%=      5-min Rain = 0
KST3 180212Z 18014KT 11/M01 A2999 RMK A01 T01071012  RH  043%=      5-min Rain = 0
KST3 180213Z 17017KT 11/M01 A2999 RMK A01 T01071012  RH  044%=      5-min Rain = 0
KST3 180214Z 18015KT 11/M01 A2999 RMK A01 T01071012  RH  044%=      5-min Rain = 0
KST3 180215Z 18013KT 11/M01 A2999 RMK A01 T01061012  RH  044%=      5-min Rain = 0
KST3 180216Z 18015KT 11/M01 A2999 RMK A01 T01051012  RH  044%=      5-min Rain = 0
KST3 180217Z 17014KT 11/M01 A2999 RMK A01 T01051011  RH  044%=      5-min Rain = 0
KST3 180218Z 18015KT 10/M01 A2999 RMK A01 T01041011  RH  045%=      5-min Rain = 0
KST3 180219Z 18013KT 10/M01 A2999 RMK A01 T01041011  RH  045%=      5-min Rain = 0
KST3 180220Z 17011KT 10/M01 A2999 RMK A01 T01031011  RH  045%=      5-min Rain = 0
KST3 180221Z 18012KT 10/M01 A2999 RMK A01 T01011011  RH  045%=      5-min Rain = 0
KST3 180222Z 18013KT 10/M01 A2999 RMK A01 T01011011  RH  046%=      5-min Rain = 0
KST3 180223Z 18012KT 10/M01 A2999 RMK A01 T01001011  RH  046%=      5-min Rain = 0
KST3 180224Z 18012KT 10/M01 A2999 RMK A01 T00991011  RH  046%=      5-min Rain = 0
KST3 180225Z 18012KT 10/M01 A2999 RMK A01 T00991011  RH  046%=      5-min Rain = 0
KST3 180226Z 18011KT 10/M01 A2999 RMK A01 T00991011  RH  046%=      5-min Rain = 0
KST3 180227Z 18011KT 10/M01 A2999 RMK A01 T00991011  RH  046%=      5-min Rain = 0
KST3 180228Z 18012KT 10/M01 A2999 RMK A01 T00971011  RH  047%=      5-min Rain = 0
KST3 180229Z 19010KT 10/M01 A2999 RMK A01 T00981011  RH  047%=      5-min Rain = 0
KST3 180230Z 19012KT 10/M01 A2999 RMK A01 T00981012  RH  046%=      5-min Rain = 0
KST3 180231Z 18012KT 10/M01 A2999 RMK A01 T00961012  RH  047%=      5-min Rain = 0
KST3 180232Z 19011KT 10/M01 A2999 RMK A01 T00961012  RH  047%=      5-min Rain = 0
KST3 180233Z 18013G18KT 10/M01 A2999 RMK A01 T00951012  RH  047%=      5-min Rain = 0
KST3 180234Z 18012KT 10/M01 A2999 RMK A01 T00951011  RH  048%=      5-min Rain = 0
KST3 180235Z 18011KT 10/M01 A2999 RMK A01 T00951011  RH  047%=      5-min Rain = 0
KST3 180236Z 18012KT 10/M01 A2999 RMK A01 T00951011  RH  048%=      5-min Rain = 0
KST3 180237Z 18013KT 10/M01 A2999 RMK A01 T00951010  RH  048%=      5-min Rain = 0
KST3 180238Z 18012KT 10/M01 A2999 RMK A01 T00961009  RH  048%=      5-min Rain = 0
KST3 180239Z 19013KT 10/M01 A2999 RMK A01 T00961009  RH  048%=      5-min Rain = 0
KST3 180240Z 19014KT 10/M01 A2999 RMK A01 T00961009  RH  048%=      5-min Rain = 0
KST3 180241Z 18014KT 10/M01 A2999 RMK A01 T00961009  RH  048%=      5-min Rain = 0
KST3 180242Z 19013KT 10/M01 A2999 RMK A01 T00971009  RH  048%=      5-min Rain = 0
KST3 180243Z 18011KT 10/M01 A2999 RMK A01 T00971008  RH  048%=      5-min Rain = 0
KST3 180244Z 18014KT 10/M01 A2998 RMK A01 T00971008  RH  048%=      5-min Rain = 0
KST3 180245Z 18014KT 10/M01 A2999 RMK A01 T00981008  RH  048%=      5-min Rain = 0
KST3 180246Z 18012KT 10/M01 A2999 RMK A01 T00981007  RH  048%=      5-min Rain = 0
KST3 180247Z 18011KT 10/M01 A2999 RMK A01 T00981008  RH  048%=      5-min Rain = 0
KST3 180248Z 18012KT 10/M01 A2999 RMK A01 T00981007  RH  048%=      5-min Rain = 0
KST3 180249Z 18011KT 10/M01 A2999 RMK A01 T00981007  RH  048%=      5-min Rain = 0
KST3 180250Z 18011KT 10/M01 A2999 RMK A01 T00971007  RH  048%=      5-min Rain = 0
KST3 180251Z 19010KT 10/M01 A2999 RMK A01 T00971007  RH  048%=      5-min Rain = 0
KST3 180252Z 18011KT 10/M01 A2999 RMK A01 T00971007  RH  048%=      5-min Rain = 0
KST3 180253Z 19009KT 10/M01 A2999 RMK A01 T00961007  RH  049%=      5-min Rain = 0
KST3 180254Z 19009KT 10/M01 A2999 RMK A01 T00961007  RH  049%=      5-min Rain = 0
KST3 180255Z 19008KT 09/M01 A2999 RMK A01 T00941007  RH  049%=      5-min Rain = 0
KST3 180256Z 19008KT 09/M01 A2998 RMK A01 T00941007  RH  049%=      5-min Rain = 0
KST3 180257Z 19008KT 09/M01 A2998 RMK A01 T00941006  RH  049%=      5-min Rain = 0
KST3 180258Z 19008KT 09/M01 A2998 RMK A01 T00921007  RH  050%=      5-min Rain = 0
KST3 180259Z 19009KT 09/M01 A2998 RMK A01 T00911007  RH  050%=      5-min Rain = 0
KST3 180300Z 20007KT 09/M01 A2999 RMK A01 T00891008  RH  051%=      5-min Rain = 0
KST3 180301Z 20008KT 09/M01 A2999 RMK A01 T00871008  RH  051%=      5-min Rain = 0
KST3 180302Z 20008KT 09/M01 A2999 RMK A01 T00861009  RH  052%=      5-min Rain = 0
KST3 180303Z 20009KT 09/M01 A2999 RMK A01 T00851008  RH  052%=      5-min Rain = 0
KST3 180304Z 20009KT 09/M01 A2999 RMK A01 T00851008  RH  052%=      5-min Rain = 0
KST3 180305Z 20009KT 09/M01 A2999 RMK A01 T00851008  RH  052%=      5-min Rain = 0
KST3 180306Z 19009KT 08/M01 A2999 RMK A01 T00841008  RH  052%=      5-min Rain = 0
KST3 180307Z 19010KT 08/M01 A2999 RMK A01 T00841007  RH  052%=      5-min Rain = 0
KST3 180308Z 19009KT 09/M01 A2998 RMK A01 T00861006  RH  052%=      5-min Rain = 0
KST3 180309Z 19008KT 09/M01 A2998 RMK A01 T00871006  RH  052%=      5-min Rain = 0
KST3 180310Z 19009KT 09/M01 A2998 RMK A01 T00871006  RH  052%=      5-min Rain = 0
KST3 180311Z 19010KT 09/M01 A2998 RMK A01 T00871006  RH  052%=      5-min Rain = 0
KST3 180312Z 19012KT 09/M01 A2998 RMK A01 T00871006  RH  052%=      5-min Rain = 0
KST3 180313Z 19010KT 09/M01 A2998 RMK A01 T00891005  RH  052%=      5-min Rain = 0
KST3 180314Z 19010KT 09/M01 A2998 RMK A01 T00901005  RH  051%=      5-min Rain = 0
KST3 180315Z 19010KT 09/M01 A2998 RMK A01 T00891006  RH  051%=      5-min Rain = 0
KST3 180316Z 19010KT 09/M01 A2998 RMK A01 T00891006  RH  052%=      5-min Rain = 0
KST3 180317Z 19011KT 09/M01 A2998 RMK A01 T00881006  RH  052%=      5-min Rain = 0
KST3 180318Z 19011KT 09/M01 A2998 RMK A01 T00881006  RH  052%=      5-min Rain = 0
KST3 180319Z 19010KT 09/M01 A2998 RMK A01 T00881005  RH  052%=      5-min Rain = 0
KST3 180320Z 19010KT 09/M01 A2998 RMK A01 T00881005  RH  052%=      5-min Rain = 0
KST3 180321Z 18010KT 09/M01 A2998 RMK A01 T00881006  RH  052%=      5-min Rain = 0
KST3 180322Z 18010KT 09/M01 A2998 RMK A01 T00871006  RH  052%=      5-min Rain = 0
KST3 180323Z 18011KT 09/M01 A2997 RMK A01 T00871005  RH  052%=      5-min Rain = 0
KST3 180324Z 18009KT 09/M01 A2997 RMK A01 T00881005  RH  052%=      5-min Rain = 0
KST3 180325Z 18009KT 09/M01 A2997 RMK A01 T00881005  RH  052%=      5-min Rain = 0
KST3 180326Z 19009KT 09/M01 A2997 RMK A01 T00891005  RH  052%=      5-min Rain = 0
KST3 180327Z 19010KT 09/M01 A2997 RMK A01 T00891006  RH  052%=      5-min Rain = 0
KST3 180328Z 19012KT 09/M01 A2997 RMK A01 T00891005  RH  052%=      5-min Rain = 0
KST3 180329Z 19011KT 09/M00 A2997 RMK A01 T00911004  RH  051%=      5-min Rain = 0
KST3 180330Z 18010KT 09/M01 A2997 RMK A01 T00921005  RH  051%=      5-min Rain = 0
KST3 180331Z 19011KT 09/M01 A2997 RMK A01 T00921005  RH  051%=      5-min Rain = 0
KST3 180332Z 19010KT 09/M01 A2997 RMK A01 T00921005  RH  051%=      5-min Rain = 0
KST3 180333Z 19010KT 09/M01 A2996 RMK A01 T00921005  RH  051%=      5-min Rain = 0
KST3 180334Z 19011KT 09/M01 A2996 RMK A01 T00921005  RH  051%=      5-min Rain = 0
KST3 180335Z 19010KT 09/M01 A2997 RMK A01 T00921005  RH  051%=      5-min Rain = 0
KST3 180336Z 19011KT 09/M01 A2996 RMK A01 T00911005  RH  051%=      5-min Rain = 0
KST3 180337Z 18011KT 09/M01 A2996 RMK A01 T00911005  RH  051%=      5-min Rain = 0
KST3 180338Z 18011KT 09/M01 A2996 RMK A01 T00911005  RH  051%=      5-min Rain = 0
KST3 180339Z 18011KT 09/M01 A2996 RMK A01 T00911005  RH  051%=      5-min Rain = 0
KST3 180340Z 19011KT 09/M01 A2996 RMK A01 T00911005  RH  051%=      5-min Rain = 0
KST3 180341Z 19011KT 09/M01 A2996 RMK A01 T00901006  RH  051%=      5-min Rain = 0
KST3 180342Z 18011KT 09/M01 A2996 RMK A01 T00901006  RH  051%=      5-min Rain = 0
KST3 180343Z 19011KT 09/M01 A2996 RMK A01 T00901006  RH  051%=      5-min Rain = 0
KST3 180344Z 19011KT 09/M01 A2996 RMK A01 T00901006  RH  051%=      5-min Rain = 0
KST3 180345Z 19011KT 09/M01 A2996 RMK A01 T00911006  RH  051%=      5-min Rain = 0
KST3 180346Z 19011KT 09/M01 A2996 RMK A01 T00901007  RH  051%=      5-min Rain = 0
KST3 180347Z 19011KT 09/M01 A2996 RMK A01 T00901007  RH  051%=      5-min Rain = 0
KST3 180348Z 20011KT 09/M01 A2996 RMK A01 T00901007  RH  050%=      5-min Rain = 0
KST3 180349Z 19012KT 09/M01 A2996 RMK A01 T00911007  RH  050%=      5-min Rain = 0
KST3 180350Z 19011KT 09/M01 A2996 RMK A01 T00901008  RH  050%=      5-min Rain = 0
KST3 180351Z 19011KT 09/M01 A2996 RMK A01 T00911008  RH  050%=      5-min Rain = 0
KST3 180352Z 19012KT 09/M01 A2996 RMK A01 T00911008  RH  050%=      5-min Rain = 0
KST3 180353Z 19011KT 09/M01 A2996 RMK A01 T00911008  RH  050%=      5-min Rain = 0
KST3 180354Z 19009KT 09/M01 A2996 RMK A01 T00911008  RH  050%=      5-min Rain = 0
KST3 180355Z 19010G16KT 09/M01 A2996 RMK A01 T00891009  RH  050%=      5-min Rain = 0
KST3 180356Z 20009KT 09/M01 A2997 RMK A01 T00861010  RH  051%=      5-min Rain = 0
KST3 180357Z 19009KT 08/M01 A2996 RMK A01 T00841010  RH  052%=      5-min Rain = 0
KST3 180358Z 19011KT 08/M01 A2996 RMK A01 T00831009  RH  052%=      5-min Rain = 0
KST3 180359Z 19010KT 09/M01 A2996 RMK A01 T00851008  RH  052%=      5-min Rain = 0
KST3 180400Z 20010KT 09/M01 A2996 RMK A01 T00861008  RH  052%=      5-min Rain = 0
KST3 180401Z 19009KT 09/M01 A2996 RMK A01 T00881007  RH  051%=      5-min Rain = 0
KST3 180402Z 19010KT 09/M01 A2996 RMK A01 T00881008  RH  051%=      5-min Rain = 0
KST3 180403Z 19011KT 09/M01 A2996 RMK A01 T00881008  RH  051%=      5-min Rain = 0
KST3 180404Z 20009KT 09/M01 A2996 RMK A01 T00881007  RH  051%=      5-min Rain = 0
KST3 180405Z 20008KT 09/M01 A2996 RMK A01 T00881008  RH  051%=      5-min Rain = 0
KST3 180406Z 19008KT 09/M01 A2996 RMK A01 T00851009  RH  052%=      5-min Rain = 0
KST3 180407Z 19008KT 08/M01 A2996 RMK A01 T00841009  RH  052%=      5-min Rain = 0
KST3 180408Z 19008KT 08/M01 A2996 RMK A01 T00841008  RH  053%=      5-min Rain = 0
KST3 180409Z 19008KT 08/M01 A2996 RMK A01 T00841007  RH  053%=      5-min Rain = 0
KST3 180410Z 18008KT 08/M01 A2996 RMK A01 T00841007  RH  053%=      5-min Rain = 0
KST3 180411Z 18007KT 08/M01 A2996 RMK A01 T00841006  RH  053%=      5-min Rain = 0
KST3 180412Z 19007KT 08/M01 A2996 RMK A01 T00841006  RH  053%=      5-min Rain = 0
KST3 180413Z 18006KT 08/M01 A2996 RMK A01 T00831007  RH  053%=      5-min Rain = 0
KST3 180414Z 18006KT 08/M01 A2996 RMK A01 T00821007  RH  054%=      5-min Rain = 0
KST3 180415Z 18006KT 08/M01 A2996 RMK A01 T00811007  RH  054%=      5-min Rain = 0
KST3 180416Z 18006KT 08/M01 A2996 RMK A01 T00811007  RH  054%=      5-min Rain = 0
KST3 180417Z 18006KT 08/M01 A2996 RMK A01 T00791007  RH  054%=      5-min Rain = 0
KST3 180418Z 19006KT 08/M01 A2996 RMK A01 T00791007  RH  055%=      5-min Rain = 0
KST3 180419Z 19006KT 08/M01 A2996 RMK A01 T00791006  RH  055%=      5-min Rain = 0
KST3 180420Z 19007KT 08/M01 A2996 RMK A01 T00791007  RH  055%=      5-min Rain = 0
KST3 180421Z 19007KT 08/M01 A2996 RMK A01 T00791007  RH  054%=      5-min Rain = 0
KST3 180422Z 19006KT 08/M01 A2996 RMK A01 T00791007  RH  054%=      5-min Rain = 0
KST3 180423Z 19007KT 08/M01 A2996 RMK A01 T00791008  RH  054%=      5-min Rain = 0
KST3 180424Z 19007KT 08/M01 A2996 RMK A01 T00781008  RH  055%=      5-min Rain = 0
KST3 180425Z 18007KT 08/M01 A2996 RMK A01 T00781008  RH  055%=      5-min Rain = 0
KST3 180426Z 19007KT 08/M01 A2996 RMK A01 T00771008  RH  055%=      5-min Rain = 0
KST3 180427Z 19007KT 08/M01 A2996 RMK A01 T00771008  RH  055%=      5-min Rain = 0
KST3 180428Z 19007KT 08/M01 A2996 RMK A01 T00771008  RH  055%=      5-min Rain = 0
KST3 180429Z 19008KT 08/M01 A2996 RMK A01 T00761009  RH  055%=      5-min Rain = 0
KST3 180430Z 19008KT 08/M01 A2996 RMK A01 T00761009  RH  055%=      5-min Rain = 0
KST3 180431Z 18008KT 08/M01 A2996 RMK A01 T00771009  RH  054%=      5-min Rain = 0
KST3 180432Z 18009KT 08/M01 A2996 RMK A01 T00781009  RH  054%=      5-min Rain = 0
KST3 180433Z 18009KT 08/M01 A2996 RMK A01 T00781010  RH  054%=      5-min Rain = 0
KST3 180434Z 18009KT 08/M01 A2996 RMK A01 T00791009  RH  054%=      5-min Rain = 0
KST3 180435Z 18008KT 08/M01 A2996 RMK A01 T00791010  RH  053%=      5-min Rain = 0
KST3 180436Z 19010KT 08/M01 A2996 RMK A01 T00791010  RH  053%=      5-min Rain = 0
KST3 180437Z 19011KT 08/M01 A2996 RMK A01 T00791010  RH  053%=      5-min Rain = 0
KST3 180438Z 19011KT 08/M01 A2996 RMK A01 T00811011  RH  052%=      5-min Rain = 0
KST3 180439Z 19010KT 09/M01 A2996 RMK A01 T00851011  RH  051%=      5-min Rain = 0
KST3 180440Z 19010KT 09/M01 A2996 RMK A01 T00871013  RH  050%=      5-min Rain = 0
KST3 180441Z 19013KT 09/M01 A2996 RMK A01 T00891014  RH  049%=      5-min Rain = 0
KST3 180442Z 19012KT 09/M01 A2996 RMK A01 T00911014  RH  048%=      5-min Rain = 0
KST3 180443Z 19012KT 09/M02 A2996 RMK A01 T00931015  RH  047%=      5-min Rain = 0
KST3 180444Z 19011KT 09/M02 A2996 RMK A01 T00931016  RH  047%=      5-min Rain = 0
KST3 180445Z 19011KT 09/M02 A2996 RMK A01 T00931016  RH  046%=      5-min Rain = 0
KST3 180446Z 19010KT 09/M02 A2996 RMK A01 T00921017  RH  047%=      5-min Rain = 0
KST3 180447Z 19009KT 09/M02 A2995 RMK A01 T00911017  RH  047%=      5-min Rain = 0
KST3 180448Z 19010KT 09/M02 A2995 RMK A01 T00891017  RH  047%=      5-min Rain = 0
KST3 180449Z 19010KT 09/M02 A2995 RMK A01 T00881017  RH  048%=      5-min Rain = 0
KST3 180450Z 20009KT 09/M02 A2995 RMK A01 T00871017  RH  048%=      5-min Rain = 0
KST3 180451Z 20009KT 09/M02 A2995 RMK A01 T00861017  RH  048%=      5-min Rain = 0
KST3 180452Z 20009KT 08/M02 A2995 RMK A01 T00841018  RH  049%=      5-min Rain = 0
KST3 180453Z 20009KT 08/M02 A2995 RMK A01 T00821018  RH  049%=      5-min Rain = 0
KST3 180454Z 20009KT 08/M02 A2995 RMK A01 T00791019  RH  050%=      5-min Rain = 0
KST3 180455Z 20009KT 08/M02 A2995 RMK A01 T00771019  RH  051%=      5-min Rain = 0
KST3 180456Z 20008KT 07/M02 A2995 RMK A01 T00741020  RH  051%=      5-min Rain = 0
KST3 180457Z 20008KT 07/M02 A2995 RMK A01 T00711020  RH  052%=      5-min Rain = 0
KST3 180458Z 20008KT 07/M02 A2995 RMK A01 T00681021  RH  053%=      5-min Rain = 0
KST3 180459Z 20008KT 07/M02 A2995 RMK A01 T00661021  RH  054%=      5-min Rain = 0
KST3 180500Z 20008KT 06/M02 A2995 RMK A01 T00641021  RH  055%=      5-min Rain = 0
KST3 180501Z 20009KT 06/M02 A2995 RMK A01 T00641020  RH  055%=      5-min Rain = 0
KST3 180502Z 20009KT 07/M02 A2995 RMK A01 T00651020  RH  055%=      5-min Rain = 0
KST3 180503Z 20009KT 07/M02 A2995 RMK A01 T00661020  RH  054%=      5-min Rain = 0
KST3 180504Z 21009KT 07/M02 A2995 RMK A01 T00681020  RH  054%=      5-min Rain = 0
KST3 180505Z 20010KT 07/M02 A2995 RMK A01 T00681021  RH  053%=      5-min Rain = 0
KST3 180506Z 20011KT 07/M02 A2995 RMK A01 T00711020  RH  052%=      5-min Rain = 0
KST3 180507Z 21010KT 07/M02 A2995 RMK A01 T00721021  RH  052%=      5-min Rain = 0
KST3 180508Z 20011KT 07/M02 A2994 RMK A01 T00731021  RH  051%=      5-min Rain = 0
KST3 180509Z 21011KT 07/M02 A2994 RMK A01 T00731022  RH  051%=      5-min Rain = 0
KST3 180510Z 20011KT 07/M02 A2994 RMK A01 T00731022  RH  051%=      5-min Rain = 0
KST3 180511Z 20011KT 07/M02 A2994 RMK A01 T00741022  RH  051%=      5-min Rain = 0
KST3 180512Z 20011KT 07/M02 A2994 RMK A01 T00741022  RH  050%=      5-min Rain = 0
KST3 180513Z 20011KT 08/M02 A2994 RMK A01 T00751022  RH  050%=      5-min Rain = 0
KST3 180514Z 20012KT 08/M02 A2994 RMK A01 T00771022  RH  050%=      5-min Rain = 0
KST3 180515Z 20012KT 08/M02 A2994 RMK A01 T00771022  RH  050%=      5-min Rain = 0
KST3 180516Z 20012KT 08/M02 A2994 RMK A01 T00781022  RH  049%=      5-min Rain = 0
KST3 180517Z 20012KT 08/M02 A2994 RMK A01 T00801021  RH  049%=      5-min Rain = 0
KST3 180518Z 20012KT 08/M02 A2994 RMK A01 T00811022  RH  049%=      5-min Rain = 0
KST3 180519Z 20012KT 08/M02 A2994 RMK A01 T00811022  RH  048%=      5-min Rain = 0
KST3 180520Z 20012KT 08/M02 A2994 RMK A01 T00831021  RH  048%=      5-min Rain = 0
KST3 180521Z 20013KT 08/M02 A2994 RMK A01 T00841021  RH  047%=      5-min Rain = 0
KST3 180522Z 20013KT 09/M02 A2994 RMK A01 T00861021  RH  047%=      5-min Rain = 0
KST3 180523Z 20014KT 09/M02 A2994 RMK A01 T00881021  RH  047%=      5-min Rain = 0
KST3 180524Z 20014KT 09/M02 A2994 RMK A01 T00891021  RH  046%=      5-min Rain = 0
KST3 180525Z 20013KT 09/M02 A2994 RMK A01 T00901021  RH  045%=      5-min Rain = 0
KST3 180526Z 20014KT 09/M02 A2994 RMK A01 T00901021  RH  045%=      5-min Rain = 0
KST3 180527Z 20013KT 09/M02 A2994 RMK A01 T00901021  RH  045%=      5-min Rain = 0
KST3 180528Z 20013KT 09/M02 A2994 RMK A01 T00911021  RH  045%=      5-min Rain = 0
KST3 180529Z 21013G18KT 09/M02 A2994 RMK A01 T00911021  RH  045%=      5-min Rain = 0
KST3 180530Z 21013KT 09/M02 A2994 RMK A01 T00911022  RH  045%=      5-min Rain = 0
KST3 180531Z 20013KT 09/M02 A2994 RMK A01 T00911022  RH  045%=      5-min Rain = 0
KST3 180532Z 20014KT 09/M02 A2994 RMK A01 T00911021  RH  045%=      5-min Rain = 0
KST3 180533Z 21016KT 09/M02 A2994 RMK A01 T00901022  RH  045%=      5-min Rain = 0
KST3 180534Z 21014KT 09/M02 A2994 RMK A01 T00921021  RH  045%=      5-min Rain = 0
KST3 180535Z 20014KT 09/M02 A2994 RMK A01 T00921022  RH  045%=      5-min Rain = 0
KST3 180536Z 20015KT 09/M02 A2994 RMK A01 T00921021  RH  045%=      5-min Rain = 0
KST3 180537Z 20014KT 09/M02 A2994 RMK A01 T00921022  RH  045%=      5-min Rain = 0
KST3 180538Z 20013KT 09/M02 A2994 RMK A01 T00911022  RH  045%=      5-min Rain = 0
KST3 180539Z 20014KT 09/M02 A2994 RMK A01 T00901022  RH  045%=      5-min Rain = 0
KST3 180540Z 20014KT 09/M02 A2994 RMK A01 T00901022  RH  046%=      5-min Rain = 0
KST3 180541Z 20014KT 09/M02 A2994 RMK A01 T00891022  RH  046%=      5-min Rain = 0
KST3 180542Z 20014KT 09/M02 A2994 RMK A01 T00891022  RH  046%=      5-min Rain = 0
KST3 180543Z 20013KT 09/M02 A2994 RMK A01 T00881022  RH  046%=      5-min Rain = 0
KST3 180544Z 20011KT 09/M02 A2994 RMK A01 T00881022  RH  046%=      5-min Rain = 0
KST3 180545Z 20012KT 09/M02 A2994 RMK A01 T00861023  RH  046%=      5-min Rain = 0
KST3 180546Z 21012KT 08/M02 A2994 RMK A01 T00841023  RH  047%=      5-min Rain = 0
KST3 180547Z 20012KT 08/M02 A2994 RMK A01 T00831023  RH  047%=      5-min Rain = 0
KST3 180548Z 20011KT 08/M02 A2994 RMK A01 T00821023  RH  047%=      5-min Rain = 0
KST3 180549Z 20011KT 08/M02 A2994 RMK A01 T00801023  RH  048%=      5-min Rain = 0
KST3 180550Z 20011KT 08/M02 A2994 RMK A01 T00791023  RH  048%=      5-min Rain = 0
KST3 180551Z 20010KT 08/M02 A2993 RMK A01 T00781024  RH  049%=      5-min Rain = 0
KST3 180552Z 20010KT 08/M02 A2993 RMK A01 T00761024  RH  049%=      5-min Rain = 0
KST3 180553Z 20010KT 07/M02 A2993 RMK A01 T00741024  RH  050%=      5-min Rain = 0
KST3 180554Z 20010KT 07/M02 A2993 RMK A01 T00731024  RH  050%=      5-min Rain = 0
KST3 180555Z 20010KT 07/M02 A2993 RMK A01 T00731024  RH  050%=      5-min Rain = 0
KST3 180556Z 20010KT 07/M03 A2993 RMK A01 T00711025  RH  050%=      5-min Rain = 0
KST3 180557Z 20010KT 07/M03 A2993 RMK A01 T00701025  RH  051%=      5-min Rain = 0
KST3 180558Z 21010KT 07/M03 A2993 RMK A01 T00691025  RH  051%=      5-min Rain = 0
KST3 180559Z 21010KT 07/M03 A2993 RMK A01 T00681025  RH  052%=      5-min Rain = 0

Page generated in 0.0809 seconds.